Observation data for Odell on 05/16/2018      Previous  Date       Current Mesonet Observations  Soil Data  Daily Summary Page  Observations in Plain Language
KOD1 160501Z 12009KT 19/17 A2997 RMK A01 T01920174  RH  089%=      5-min Rain = 0
KOD1 160502Z 13008KT 19/17 A2998 RMK A01 T01920172  RH  088%=      5-min Rain = 0
KOD1 160503Z 14009KT 19/17 A2998 RMK A01 T01930170  RH  086%=      5-min Rain = 0
KOD1 160504Z 17010KT 20/16 A2997 RMK A01 T01950156  RH  079%=      5-min Rain = 0
KOD1 160505Z 13005KT 20/16 A2998 RMK A01 T02000162  RH  079%=      5-min Rain = 0
KOD1 160506Z 12007KT 20/17 A2997 RMK A01 T02000166  RH  080%=      5-min Rain = 0
KOD1 160507Z 14009KT 20/17 A2997 RMK A01 T01990166  RH  081%=      5-min Rain = 0
KOD1 160508Z 15009KT 20/16 A2998 RMK A01 T01980164  RH  080%=      5-min Rain = 0
KOD1 160509Z 15013G18KT 20/16 A2998 RMK A01 T01990164  RH  080%=      5-min Rain = 0
KOD1 160510Z 15016KT 20/16 A2998 RMK A01 T02000161  RH  078%=      5-min Rain = 0
KOD1 160511Z 16008KT 20/17 A2999 RMK A01 T02000165  RH  080%=      5-min Rain = 0
KOD1 160512Z 19010G17KT 20/16 A2999 RMK A01 T02000156  RH  076%=      5-min Rain = 0
KOD1 160513Z 16008KT 20/16 A2999 RMK A01 T02030157  RH  075%=      5-min Rain = 0
KOD1 160514Z 15010KT 20/16 A2999 RMK A01 T02030162  RH  077%=      5-min Rain = 0
KOD1 160515Z 17010KT 20/16 A2998 RMK A01 T02020162  RH  078%=      5-min Rain = 0
KOD1 160516Z 16010KT 20/16 A2999 RMK A01 T02020163  RH  078%=      5-min Rain = 0.01
KOD1 160517Z 16012KT 20/17 A2999 RMK A01 T02010165  RH  080%=      5-min Rain = 0
KOD1 160518Z 17016KT 20/16 A2999 RMK A01 T02000164  RH  080%=      5-min Rain = 0
KOD1 160519Z 17014KT 20/16 A2999 RMK A01 T02000163  RH  079%=      5-min Rain = 0
KOD1 160520Z 16014KT 20/16 A2999 RMK A01 T02000162  RH  079%=      5-min Rain = 0
KOD1 160521Z 17013KT 20/16 A2999 RMK A01 T02000164  RH  080%=      5-min Rain = 0
KOD1 160522Z 17013KT 20/17 A2999 RMK A01 T01990165  RH  081%=      5-min Rain = 0
KOD1 160523Z 17013KT 20/17 A2999 RMK A01 T01980165  RH  081%=      5-min Rain = 0
KOD1 160524Z 16012KT 20/17 A2999 RMK A01 T01970165  RH  082%=      5-min Rain = 0
KOD1 160525Z 16011KT 20/17 A2999 RMK A01 T01970166  RH  083%=      5-min Rain = 0
KOD1 160526Z 15012KT 20/17 A2998 RMK A01 T01960165  RH  082%=      5-min Rain = 0
KOD1 160527Z 16013KT 20/16 A2998 RMK A01 T01960164  RH  082%=      5-min Rain = 0
KOD1 160528Z 15012KT 20/16 A2997 RMK A01 T01960163  RH  081%=      5-min Rain = 0
KOD1 160529Z 15013KT 20/16 A2997 RMK A01 T01960163  RH  081%=      5-min Rain = 0
KOD1 160530Z 15014KT 20/16 A2997 RMK A01 T01960162  RH  081%=      5-min Rain = 0
KOD1 160531Z 15013KT 20/16 A2997 RMK A01 T01960160  RH  080%=      5-min Rain = 0
KOD1 160532Z 16012KT 20/16 A2997 RMK A01 T01960161  RH  080%=      5-min Rain = 0
KOD1 160533Z 15014KT 20/16 A2997 RMK A01 T01960161  RH  080%=      5-min Rain = 0
KOD1 160534Z 14014KT 20/16 A2996 RMK A01 T01950159  RH  080%=      5-min Rain = 0
KOD1 160535Z 14014KT 20/16 A2996 RMK A01 T01950160  RH  080%=      5-min Rain = 0
KOD1 160536Z 13014KT 20/16 A2996 RMK A01 T01950161  RH  081%=      5-min Rain = 0
KOD1 160537Z 13015KT 19/16 A2996 RMK A01 T01940163  RH  082%=      5-min Rain = 0
KOD1 160538Z 12014KT 19/16 A2996 RMK A01 T01930164  RH  083%=      5-min Rain = 0
KOD1 160539Z 13014KT 19/16 A2997 RMK A01 T01910164  RH  084%=      5-min Rain = 0
KOD1 160540Z 12015KT 19/17 A2997 RMK A01 T01910165  RH  085%=      5-min Rain = 0
KOD1 160541Z 13015KT 19/17 A2997 RMK A01 T01900165  RH  085%=      5-min Rain = 0
KOD1 160542Z 13015KT 19/17 A2997 RMK A01 T01900165  RH  085%=      5-min Rain = 0
KOD1 160543Z 14016G21KT 19/17 A2997 RMK A01 T01900165  RH  085%=      5-min Rain = 0
KOD1 160544Z 13017KT 19/17 A2997 RMK A01 T01900166  RH  086%=      5-min Rain = 0
KOD1 160545Z 13020KT 19/17 A2997 RMK A01 T01900165  RH  085%=      5-min Rain = 0
KOD1 160546Z 13021KT 19/16 A2997 RMK A01 T01910164  RH  085%=      5-min Rain = 0
KOD1 160547Z 13019KT 19/16 A2997 RMK A01 T01910164  RH  084%=      5-min Rain = 0
KOD1 160548Z 13017KT 19/16 A2996 RMK A01 T01910164  RH  084%=      5-min Rain = 0
KOD1 160549Z 13019G24KT 19/16 A2995 RMK A01 T01910163  RH  084%=      5-min Rain = 0
KOD1 160550Z 12022KT 19/16 A2995 RMK A01 T01920162  RH  083%=      5-min Rain = 0
KOD1 160551Z 13021G26KT 19/16 A2995 RMK A01 T01940157  RH  079%=      5-min Rain = 0
KOD1 160552Z 14023KT 20/16 A2994 RMK A01 T01960159  RH  079%=      5-min Rain = 0
KOD1 160553Z 13023G29KT 20/16 A2994 RMK A01 T01960160  RH  080%=      5-min Rain = 0
KOD1 160554Z 13024KT 20/16 A2993 RMK A01 T01950158  RH  079%=      5-min Rain = 0
KOD1 160555Z 14024G29KT 20/16 A2992 RMK A01 T01970155  RH  077%=      5-min Rain = 0
KOD1 160556Z 14024G29KT 20/16 A2992 RMK A01 T01980155  RH  076%=      5-min Rain = 0
KOD1 160557Z 13021G26KT 20/15 A2992 RMK A01 T02000153  RH  074%=      5-min Rain = 0
KOD1 160558Z 14021G26KT 20/15 A2992 RMK A01 T02020152  RH  073%=      5-min Rain = 0
KOD1 160559Z 14018KT 20/15 A2992 RMK A01 T02030151  RH  072%=      5-min Rain = 0
KOD1 160600Z 14020G28KT 20/15 A2992 RMK A01 T02040150  RH  071%=      5-min Rain = 0
KOD1 160601Z 14018G24KT 20/15 A2992 RMK A01 T02040151  RH  072%=      5-min Rain = 0
KOD1 160602Z 13021KT 21/15 A2991 RMK A01 T02050150  RH  071%=      5-min Rain = 0
KOD1 160603Z 13023KT 21/15 A2991 RMK A01 T02050149  RH  070%=      5-min Rain = 0
KOD1 160604Z 13021KT 21/15 A299 RMK A01 T02050151  RH  071%=      5-min Rain = 0
KOD1 160605Z 12022G28KT 20/15 A299 RMK A01 T02040150  RH  071%=      5-min Rain = 0
KOD1 160606Z 12022KT 20/15 A2989 RMK A01 T02040149  RH  070%=      5-min Rain = 0
KOD1 160607Z 12021G26KT 20/15 A2989 RMK A01 T02040148  RH  070%=      5-min Rain = 0
KOD1 160608Z 11021G26KT 20/15 A2988 RMK A01 T02040149  RH  071%=      5-min Rain = 0
KOD1 160609Z 11024G32KT 20/15 A2988 RMK A01 T02030151  RH  072%=      5-min Rain = 0
KOD1 160610Z 11027G34KT 20/16 A2987 RMK A01 T02010155  RH  075%=      5-min Rain = 0
KOD1 160611Z 12024KT 20/16 A2987 RMK A01 T02000157  RH  076%=      5-min Rain = 0
KOD1 160612Z 12026KT 20/16 A2986 RMK A01 T01980158  RH  077%=      5-min Rain = 0
KOD1 160613Z 12023G29KT 20/16 A2986 RMK A01 T01980157  RH  077%=      5-min Rain = 0
KOD1 160614Z 12025G31KT 20/16 A2985 RMK A01 T01970156  RH  077%=      5-min Rain = 0
KOD1 160615Z 13025KT 20/15 A2985 RMK A01 T01980154  RH  076%=      5-min Rain = 0
KOD1 160616Z 13024KT 20/15 A2985 RMK A01 T01990153  RH  075%=      5-min Rain = 0
KOD1 160617Z 13020KT 20/15 A2984 RMK A01 T01990153  RH  075%=      5-min Rain = 0
KOD1 160618Z 13022G27KT 20/15 A2984 RMK A01 T01990152  RH  074%=      5-min Rain = 0
KOD1 160619Z 13020G27KT 20/15 A2984 RMK A01 T02010151  RH  073%=      5-min Rain = 0
KOD1 160620Z 13022G27KT 20/15 A2985 RMK A01 T02010151  RH  073%=      5-min Rain = 0
KOD1 160621Z 13020G26KT 20/15 A2985 RMK A01 T02020151  RH  072%=      5-min Rain = 0
KOD1 160622Z 13019KT 20/15 A2985 RMK A01 T02020150  RH  072%=      5-min Rain = 0
KOD1 160623Z 12018G23KT 20/15 A2985 RMK A01 T02020150  RH  072%=      5-min Rain = 0
KOD1 160624Z 12018KT 20/15 A2986 RMK A01 T02020149  RH  071%=      5-min Rain = 0
KOD1 160625Z 13018KT 20/15 A2986 RMK A01 T02030149  RH  071%=      5-min Rain = 0
KOD1 160626Z 13017KT 20/15 A2986 RMK A01 T02030150  RH  071%=      5-min Rain = 0
KOD1 160627Z 13018KT 20/15 A2986 RMK A01 T02030149  RH  071%=      5-min Rain = 0
KOD1 160628Z 13017KT 20/15 A2986 RMK A01 T02030150  RH  072%=      5-min Rain = 0
KOD1 160629Z 13016KT 20/15 A2986 RMK A01 T02020151  RH  072%=      5-min Rain = 0
KOD1 160630Z 12017G23KT 20/15 A2986 RMK A01 T02020150  RH  072%=      5-min Rain = 0
KOD1 160631Z 12017KT 20/15 A2986 RMK A01 T02020150  RH  072%=      5-min Rain = 0
KOD1 160632Z 12016G21KT 20/15 A2986 RMK A01 T02020150  RH  072%=      5-min Rain = 0
KOD1 160633Z 11018G24KT 20/15 A2986 RMK A01 T02020150  RH  072%=      5-min Rain = 0
KOD1 160634Z 11016KT 20/15 A2986 RMK A01 T02020150  RH  072%=      5-min Rain = 0
KOD1 160635Z 11013KT 20/15 A2986 RMK A01 T02020151  RH  073%=      5-min Rain = 0
KOD1 160636Z 11014G19KT 20/15 A2987 RMK A01 T02010151  RH  073%=      5-min Rain = 0
KOD1 160637Z 11012KT 20/15 A2987 RMK A01 T02010151  RH  073%=      5-min Rain = 0
KOD1 160638Z 11012KT 20/15 A2987 RMK A01 T02010151  RH  073%=      5-min Rain = 0
KOD1 160639Z 10014KT 20/15 A2987 RMK A01 T02010151  RH  073%=      5-min Rain = 0
KOD1 160640Z 10013KT 20/15 A2988 RMK A01 T02010151  RH  073%=      5-min Rain = 0
KOD1 160641Z 08012KT 20/15 A2988 RMK A01 T02020152  RH  073%=      5-min Rain = 0
KOD1 160642Z 09012KT 20/15 A2988 RMK A01 T02010154  RH  074%=      5-min Rain = 0
KOD1 160643Z 08013KT 20/16 A2988 RMK A01 T02010155  RH  075%=      5-min Rain = 0
KOD1 160644Z 09013KT 20/16 A2988 RMK A01 T02000155  RH  075%=      5-min Rain = 0
KOD1 160645Z 08013KT 20/16 A2989 RMK A01 T01990156  RH  076%=      5-min Rain = 0
KOD1 160646Z 09013KT 20/16 A2989 RMK A01 T01990155  RH  075%=      5-min Rain = 0
KOD1 160647Z 09012KT 20/16 A2989 RMK A01 T01990155  RH  075%=      5-min Rain = 0
KOD1 160648Z 09012KT 20/15 A299 RMK A01 T01990153  RH  075%=      5-min Rain = 0
KOD1 160649Z 10011KT 20/15 A299 RMK A01 T02000152  RH  073%=      5-min Rain = 0
KOD1 160650Z 09013KT 20/15 A299 RMK A01 T02010150  RH  072%=      5-min Rain = 0
KOD1 160651Z 09012KT 20/15 A2991 RMK A01 T02030149  RH  071%=      5-min Rain = 0
KOD1 160652Z 09011KT 20/15 A2991 RMK A01 T02030149  RH  071%=      5-min Rain = 0
KOD1 160653Z 08008KT 20/15 A2991 RMK A01 T02040149  RH  071%=      5-min Rain = 0
KOD1 160654Z 07006KT 20/15 A2992 RMK A01 T02040149  RH  071%=      5-min Rain = 0
KOD1 160655Z 04005KT 20/15 A2992 RMK A01 T02040150  RH  071%=      5-min Rain = 0
KOD1 160656Z 00005KT 20/15 A2993 RMK A01 T02030150  RH  072%=      5-min Rain = 0
KOD1 160657Z 35004KT 20/15 A2994 RMK A01 T02030151  RH  072%=      5-min Rain = 0
KOD1 160658Z 32003KT 20/15 A2994 RMK A01 T02030152  RH  072%=      5-min Rain = 0
KOD1 160659Z 33002KT 20/15 A2995 RMK A01 T02020151  RH  072%=      5-min Rain = 0
KOD1 160700Z 36002KT 20/15 A2995 RMK A01 T02020152  RH  073%=      5-min Rain = 0
KOD1 160701Z 32005KT 20/15 A2995 RMK A01 T02020152  RH  073%=      5-min Rain = 0
KOD1 160702Z 28009KT 20/16 A2995 RMK A01 T02020155  RH  074%=      5-min Rain = 0
KOD1 160703Z 28006KT 20/16 A2995 RMK A01 T02010157  RH  076%=      5-min Rain = 0
KOD1 160704Z 27004KT 20/16 A2995 RMK A01 T01990156  RH  076%=      5-min Rain = 0
KOD1 160705Z 28008KT 20/16 A2995 RMK A01 T01980156  RH  076%=      5-min Rain = 0
KOD1 160706Z 31009KT 20/15 A2995 RMK A01 T01980153  RH  075%=      5-min Rain = 0
KOD1 160707Z 32009KT 20/15 A2995 RMK A01 T01990151  RH  074%=      5-min Rain = 0
KOD1 160708Z 34007KT 20/15 A2995 RMK A01 T02000148  RH  072%=      5-min Rain = 0
KOD1 160709Z 36004KT 20/15 A2995 RMK A01 T02020147  RH  071%=      5-min Rain = 0
KOD1 160710Z 35003KT 20/15 A2995 RMK A01 T02030147  RH  070%=      5-min Rain = 0
KOD1 160711Z 35005KT 20/15 A2994 RMK A01 T02040147  RH  070%=      5-min Rain = 0
KOD1 160712Z 11007KT 20/15 A2995 RMK A01 T02040151  RH  072%=      5-min Rain = 0
KOD1 160713Z 09003KT 20/15 A2995 RMK A01 T02020148  RH  071%=      5-min Rain = 0
KOD1 160714Z 10003KT 20/15 A2996 RMK A01 T02030146  RH  070%=      5-min Rain = 0
KOD1 160715Z 15003KT 20/15 A2996 RMK A01 T02040146  RH  069%=      5-min Rain = 0
KOD1 160716Z 19004KT 21/15 A2996 RMK A01 T02050153  RH  072%=      5-min Rain = 0
KOD1 160717Z 19004KT 20/15 A2996 RMK A01 T02040151  RH  072%=      5-min Rain = 0
KOD1 160718Z 17004KT 20/15 A2996 RMK A01 T02040153  RH  073%=      5-min Rain = 0
KOD1 160719Z 15003KT 20/16 A2996 RMK A01 T02030156  RH  074%=      5-min Rain = 0
KOD1 160720Z 15002KT 20/16 A2995 RMK A01 T02020155  RH  074%=      5-min Rain = 0
KOD1 160721Z 16003KT 20/16 A2995 RMK A01 T02010155  RH  075%=      5-min Rain = 0
KOD1 160722Z 14004KT 20/15 A2995 RMK A01 T02010150  RH  072%=      5-min Rain = 0
KOD1 160723Z 12004KT 20/15 A2995 RMK A01 T02030149  RH  071%=      5-min Rain = 0
KOD1 160724Z 13004KT 20/15 A2995 RMK A01 T02030150  RH  071%=      5-min Rain = 0
KOD1 160725Z 15004KT 20/15 A2995 RMK A01 T02030150  RH  072%=      5-min Rain = 0
KOD1 160726Z 17006KT 20/15 A2995 RMK A01 T02020153  RH  073%=      5-min Rain = 0
KOD1 160727Z 18006KT 20/16 A2995 RMK A01 T02020156  RH  075%=      5-min Rain = 0
KOD1 160728Z 20007KT 20/16 A2995 RMK A01 T02010156  RH  075%=      5-min Rain = 0
KOD1 160729Z 22007KT 20/16 A2995 RMK A01 T02010158  RH  076%=      5-min Rain = 0
KOD1 160730Z 22006KT 20/16 A2995 RMK A01 T02000156  RH  076%=      5-min Rain = 0
KOD1 160731Z 22006KT 20/16 A2996 RMK A01 T01990156  RH  076%=      5-min Rain = 0
KOD1 160732Z 21006KT 20/15 A2996 RMK A01 T01990154  RH  075%=      5-min Rain = 0
KOD1 160733Z 21005KT 20/15 A2996 RMK A01 T02000154  RH  075%=      5-min Rain = 0
KOD1 160734Z 20005KT 20/15 A2996 RMK A01 T02000153  RH  074%=      5-min Rain = 0
KOD1 160735Z 21006KT 20/15 A2996 RMK A01 T02000153  RH  074%=      5-min Rain = 0
KOD1 160736Z 21005KT 20/15 A2996 RMK A01 T02010154  RH  074%=      5-min Rain = 0
KOD1 160737Z 21004KT 20/15 A2996 RMK A01 T02010154  RH  074%=      5-min Rain = 0
KOD1 160738Z 22003KT 20/15 A2997 RMK A01 T02010153  RH  074%=      5-min Rain = 0
KOD1 160739Z 26003KT 20/15 A2997 RMK A01 T02010151  RH  073%=      5-min Rain = 0
KOD1 160740Z 27003KT 20/15 A2997 RMK A01 T02010152  RH  073%=      5-min Rain = 0
KOD1 160741Z 28003KT 20/15 A2997 RMK A01 T02010152  RH  073%=      5-min Rain = 0
KOD1 160742Z 27002KT 20/15 A2997 RMK A01 T02010152  RH  073%=      5-min Rain = 0
KOD1 160743Z 25002KT 20/15 A2997 RMK A01 T02010152  RH  073%=      5-min Rain = 0
KOD1 160744Z 22002KT 20/15 A2997 RMK A01 T02010153  RH  074%=      5-min Rain = 0
KOD1 160745Z 22002KT 20/15 A2997 RMK A01 T02000152  RH  073%=      5-min Rain = 0
KOD1 160746Z 22002KT 20/15 A2996 RMK A01 T02000151  RH  073%=      5-min Rain = 0
KOD1 160747Z 22001KT 20/15 A2996 RMK A01 T02000152  RH  074%=      5-min Rain = 0
KOD1 160748Z 21000KT 20/15 A2996 RMK A01 T02000153  RH  074%=      5-min Rain = 0
KOD1 160749Z 00000KT 20/15 A2995 RMK A01 T01990153  RH  074%=      5-min Rain = 0
KOD1 160750Z 13001KT 20/15 A2995 RMK A01 T01970152  RH  075%=      5-min Rain = 0
KOD1 160751Z 11003KT 20/15 A2995 RMK A01 T01950154  RH  077%=      5-min Rain = 0
KOD1 160752Z 07004KT 19/16 A2995 RMK A01 T01930155  RH  079%=      5-min Rain = 0
KOD1 160753Z 05007KT 19/15 A2995 RMK A01 T01910154  RH  079%=      5-min Rain = 0
KOD1 160754Z 04007KT 19/16 A2995 RMK A01 T01890155  RH  081%=      5-min Rain = 0
KOD1 160755Z 03008KT 19/16 A2996 RMK A01 T01880156  RH  082%=      5-min Rain = 0
KOD1 160756Z 02011KT 19/16 A2996 RMK A01 T01870155  RH  081%=      5-min Rain = 0
KOD1 160757Z 02011KT 19/15 A2996 RMK A01 T01880154  RH  081%=      5-min Rain = 0
KOD1 160758Z 02008KT 19/15 A2996 RMK A01 T01880154  RH  080%=      5-min Rain = 0
KOD1 160759Z 02007KT 19/15 A2996 RMK A01 T01890154  RH  080%=      5-min Rain = 0
KOD1 160800Z 01005KT 19/15 A2996 RMK A01 T01890154  RH  080%=      5-min Rain = 0
KOD1 160801Z 02004KT 19/15 A2996 RMK A01 T01890154  RH  080%=      5-min Rain = 0
KOD1 160802Z 02005KT 19/15 A2996 RMK A01 T01890154  RH  080%=      5-min Rain = 0
KOD1 160803Z 03004KT 19/15 A2995 RMK A01 T01890153  RH  080%=      5-min Rain = 0
KOD1 160804Z 03004KT 19/15 A2995 RMK A01 T01880153  RH  080%=      5-min Rain = 0
KOD1 160805Z 03003KT 19/15 A2995 RMK A01 T01880153  RH  080%=      5-min Rain = 0
KOD1 160806Z 04003KT 19/15 A2995 RMK A01 T01870153  RH  080%=      5-min Rain = 0
KOD1 160807Z 04003KT 19/15 A2995 RMK A01 T01870153  RH  081%=      5-min Rain = 0
KOD1 160808Z 05004KT 19/15 A2995 RMK A01 T01860152  RH  081%=      5-min Rain = 0
KOD1 160809Z 04005KT 19/15 A2995 RMK A01 T01850152  RH  081%=      5-min Rain = 0
KOD1 160810Z 05006KT 18/15 A2995 RMK A01 T01840152  RH  082%=      5-min Rain = 0
KOD1 160811Z 05006KT 18/15 A2995 RMK A01 T01820152  RH  083%=      5-min Rain = 0
KOD1 160812Z 05006KT 18/15 A2995 RMK A01 T01810153  RH  083%=      5-min Rain = 0
KOD1 160813Z 05007KT 18/15 A2995 RMK A01 T01810153  RH  084%=      5-min Rain = 0
KOD1 160814Z 05006KT 18/15 A2995 RMK A01 T01800154  RH  085%=      5-min Rain = 0
KOD1 160815Z 05006KT 18/15 A2994 RMK A01 T01790154  RH  085%=      5-min Rain = 0
KOD1 160816Z 05005KT 18/15 A2994 RMK A01 T01790154  RH  086%=      5-min Rain = 0
KOD1 160817Z 05005KT 18/15 A2995 RMK A01 T01780154  RH  086%=      5-min Rain = 0
KOD1 160818Z 05004KT 18/15 A2995 RMK A01 T01780154  RH  086%=      5-min Rain = 0
KOD1 160819Z 05004KT 18/15 A2995 RMK A01 T01780154  RH  086%=      5-min Rain = 0
KOD1 160820Z 05003KT 18/15 A2994 RMK A01 T01780154  RH  086%=      5-min Rain = 0
KOD1 160821Z 05003KT 18/15 A2994 RMK A01 T01780154  RH  086%=      5-min Rain = 0
KOD1 160822Z 06003KT 18/15 A2994 RMK A01 T01780154  RH  086%=      5-min Rain = 0
KOD1 160823Z 06003KT 18/15 A2994 RMK A01 T01790154  RH  086%=      5-min Rain = 0
KOD1 160824Z 06004KT 18/15 A2994 RMK A01 T01800153  RH  085%=      5-min Rain = 0
KOD1 160825Z 06004KT 18/15 A2994 RMK A01 T01810152  RH  083%=      5-min Rain = 0
KOD1 160826Z 06004KT 18/15 A2994 RMK A01 T01820151  RH  082%=      5-min Rain = 0
KOD1 160827Z 05003KT 18/15 A2994 RMK A01 T01820151  RH  082%=      5-min Rain = 0
KOD1 160828Z 04003KT 18/15 A2994 RMK A01 T01820151  RH  082%=      5-min Rain = 0
KOD1 160829Z 04004KT 18/15 A2994 RMK A01 T01810152  RH  083%=      5-min Rain = 0
KOD1 160830Z 04005KT 18/15 A2994 RMK A01 T01810152  RH  083%=      5-min Rain = 0
KOD1 160831Z 04006KT 18/15 A2994 RMK A01 T01810152  RH  084%=      5-min Rain = 0
KOD1 160832Z 04006KT 18/15 A2994 RMK A01 T01800153  RH  084%=      5-min Rain = 0
KOD1 160833Z 05007KT 18/15 A2994 RMK A01 T01790153  RH  085%=      5-min Rain = 0
KOD1 160834Z 05006KT 18/15 A2994 RMK A01 T01780153  RH  085%=      5-min Rain = 0
KOD1 160835Z 05006KT 18/15 A2994 RMK A01 T01770153  RH  086%=      5-min Rain = 0
KOD1 160836Z 04006KT 18/15 A2994 RMK A01 T01760154  RH  086%=      5-min Rain = 0
KOD1 160837Z 04006KT 18/16 A2994 RMK A01 T01760155  RH  087%=      5-min Rain = 0
KOD1 160838Z 03005KT 18/16 A2994 RMK A01 T01760155  RH  088%=      5-min Rain = 0
KOD1 160839Z 03005KT 18/16 A2994 RMK A01 T01760156  RH  088%=      5-min Rain = 0
KOD1 160840Z 03004KT 18/16 A2994 RMK A01 T01760155  RH  088%=      5-min Rain = 0
KOD1 160841Z 03005KT 18/16 A2994 RMK A01 T01760155  RH  088%=      5-min Rain = 0
KOD1 160842Z 04005KT 18/16 A2994 RMK A01 T01760155  RH  088%=      5-min Rain = 0
KOD1 160843Z 04006KT 18/16 A2994 RMK A01 T01760155  RH  088%=      5-min Rain = 0
KOD1 160844Z 04006KT 18/16 A2994 RMK A01 T01750155  RH  088%=      5-min Rain = 0
KOD1 160845Z 04005KT 18/16 A2994 RMK A01 T01750155  RH  088%=      5-min Rain = 0
KOD1 160846Z 04005KT 18/16 A2994 RMK A01 T01750155  RH  088%=      5-min Rain = 0
KOD1 160847Z 03005KT 18/16 A2994 RMK A01 T01750156  RH  088%=      5-min Rain = 0
KOD1 160848Z 03004KT 18/16 A2995 RMK A01 T01750155  RH  089%=      5-min Rain = 0
KOD1 160849Z 02004KT 17/16 A2995 RMK A01 T01740155  RH  089%=      5-min Rain = 0
KOD1 160850Z 02005KT 17/16 A2995 RMK A01 T01740155  RH  089%=      5-min Rain = 0
KOD1 160851Z 02005KT 17/16 A2995 RMK A01 T01740155  RH  088%=      5-min Rain = 0
KOD1 160852Z 02005KT 17/15 A2995 RMK A01 T01740154  RH  088%=      5-min Rain = 0
KOD1 160853Z 02004KT 17/15 A2995 RMK A01 T01740154  RH  088%=      5-min Rain = 0
KOD1 160854Z 01004KT 18/15 A2995 RMK A01 T01750154  RH  088%=      5-min Rain = 0
KOD1 160855Z 01004KT 18/15 A2995 RMK A01 T01750153  RH  087%=      5-min Rain = 0
KOD1 160856Z 02003KT 18/15 A2995 RMK A01 T01750153  RH  087%=      5-min Rain = 0
KOD1 160857Z 02003KT 18/15 A2995 RMK A01 T01750152  RH  087%=      5-min Rain = 0
KOD1 160858Z 02003KT 18/15 A2995 RMK A01 T01750152  RH  087%=      5-min Rain = 0
KOD1 160859Z 03004KT 17/15 A2995 RMK A01 T01740151  RH  086%=      5-min Rain = 0
KOD1 160900Z 03005KT 17/15 A2995 RMK A01 T01730149  RH  086%=      5-min Rain = 0
KOD1 160901Z 04006KT 17/15 A2995 RMK A01 T01730149  RH  086%=      5-min Rain = 0
KOD1 160902Z 04005KT 17/15 A2995 RMK A01 T01720147  RH  086%=      5-min Rain = 0
KOD1 160903Z 04005KT 17/15 A2995 RMK A01 T01710147  RH  086%=      5-min Rain = 0
KOD1 160904Z 03005KT 17/15 A2994 RMK A01 T01710148  RH  087%=      5-min Rain = 0
KOD1 160905Z 03005KT 17/15 A2994 RMK A01 T01710150  RH  087%=      5-min Rain = 0
KOD1 160906Z 03005KT 17/15 A2994 RMK A01 T01710150  RH  087%=      5-min Rain = 0
KOD1 160907Z 03006KT 17/15 A2994 RMK A01 T01710150  RH  087%=      5-min Rain = 0
KOD1 160908Z 03006KT 17/15 A2994 RMK A01 T01710150  RH  087%=      5-min Rain = 0
KOD1 160909Z 03006KT 17/15 A2994 RMK A01 T01710150  RH  087%=      5-min Rain = 0
KOD1 160910Z 03005KT 17/15 A2994 RMK A01 T01710149  RH  087%=      5-min Rain = 0
KOD1 160911Z 02004KT 17/15 A2994 RMK A01 T01700149  RH  087%=      5-min Rain = 0
KOD1 160912Z 35004KT 17/15 A2994 RMK A01 T01700149  RH  087%=      5-min Rain = 0
KOD1 160913Z 34004KT 17/15 A2994 RMK A01 T01700148  RH  087%=      5-min Rain = 0
KOD1 160914Z 35004KT 17/15 A2994 RMK A01 T01700148  RH  087%=      5-min Rain = 0
KOD1 160915Z 00005KT 17/15 A2994 RMK A01 T01700149  RH  087%=      5-min Rain = 0
KOD1 160916Z 00004KT 17/15 A2994 RMK A01 T01710149  RH  087%=      5-min Rain = 0
KOD1 160917Z 33002KT 17/15 A2995 RMK A01 T01710149  RH  087%=      5-min Rain = 0
KOD1 160918Z 24004KT 17/15 A2995 RMK A01 T01710149  RH  087%=      5-min Rain = 0
KOD1 160919Z 25005KT 17/15 A2995 RMK A01 T01690149  RH  088%=      5-min Rain = 0
KOD1 160920Z 24008KT 17/15 A2995 RMK A01 T01680151  RH  090%=      5-min Rain = 0
KOD1 160921Z 25012KT 17/15 A2995 RMK A01 T01680152  RH  091%=      5-min Rain = 0
KOD1 160922Z 25012KT 17/15 A2995 RMK A01 T01670152  RH  091%=      5-min Rain = 0
KOD1 160923Z 25011KT 17/15 A2995 RMK A01 T01670153  RH  091%=      5-min Rain = 0
KOD1 160924Z 26008KT 17/15 A2995 RMK A01 T01680153  RH  091%=      5-min Rain = 0
KOD1 160925Z 26006KT 17/15 A2995 RMK A01 T01690153  RH  090%=      5-min Rain = 0
KOD1 160926Z 26005KT 17/15 A2995 RMK A01 T01700153  RH  090%=      5-min Rain = 0
KOD1 160927Z 28004KT 17/15 A2995 RMK A01 T01700153  RH  089%=      5-min Rain = 0
KOD1 160928Z 28005KT 17/15 A2995 RMK A01 T01710152  RH  089%=      5-min Rain = 0
KOD1 160929Z 28005KT 17/15 A2995 RMK A01 T01710152  RH  088%=      5-min Rain = 0
KOD1 160930Z 29005KT 17/15 A2995 RMK A01 T01710151  RH  088%=      5-min Rain = 0
KOD1 160931Z 28004KT 17/15 A2995 RMK A01 T01710151  RH  088%=      5-min Rain = 0
KOD1 160932Z 27005KT 17/15 A2995 RMK A01 T01710151  RH  088%=      5-min Rain = 0
KOD1 160933Z 27006KT 17/15 A2995 RMK A01 T01710151  RH  088%=      5-min Rain = 0
KOD1 160934Z 28006KT 17/15 A2995 RMK A01 T01710151  RH  088%=      5-min Rain = 0
KOD1 160935Z 28006KT 17/15 A2995 RMK A01 T01710151  RH  088%=      5-min Rain = 0
KOD1 160936Z 29006KT 17/15 A2995 RMK A01 T01710151  RH  088%=      5-min Rain = 0
KOD1 160937Z 30006KT 17/15 A2995 RMK A01 T01710151  RH  088%=      5-min Rain = 0
KOD1 160938Z 29006KT 17/15 A2995 RMK A01 T01700150  RH  088%=      5-min Rain = 0
KOD1 160939Z 29008KT 17/15 A2995 RMK A01 T01690150  RH  088%=      5-min Rain = 0
KOD1 160940Z 29008KT 17/15 A2995 RMK A01 T01690150  RH  089%=      5-min Rain = 0
KOD1 160941Z 28007KT 17/15 A2995 RMK A01 T01680150  RH  089%=      5-min Rain = 0
KOD1 160942Z 28007KT 17/15 A2995 RMK A01 T01680150  RH  089%=      5-min Rain = 0
KOD1 160943Z 28007KT 17/15 A2995 RMK A01 T01680150  RH  090%=      5-min Rain = 0
KOD1 160944Z 29008KT 17/15 A2995 RMK A01 T01670150  RH  090%=      5-min Rain = 0
KOD1 160945Z 29008KT 17/15 A2995 RMK A01 T01670151  RH  090%=      5-min Rain = 0
KOD1 160946Z 29007KT 17/15 A2995 RMK A01 T01670151  RH  090%=      5-min Rain = 0
KOD1 160947Z 31005KT 17/15 A2995 RMK A01 T01670151  RH  090%=      5-min Rain = 0
KOD1 160948Z 33005KT 17/15 A2996 RMK A01 T01670150  RH  090%=      5-min Rain = 0
KOD1 160949Z 36006KT 17/15 A2996 RMK A01 T01670149  RH  090%=      5-min Rain = 0
KOD1 160950Z 02008KT 17/15 A2996 RMK A01 T01660149  RH  090%=      5-min Rain = 0
KOD1 160951Z 02006KT 17/15 A2996 RMK A01 T01650149  RH  090%=      5-min Rain = 0
KOD1 160952Z 00005KT 17/15 A2996 RMK A01 T01650149  RH  090%=      5-min Rain = 0
KOD1 160953Z 35004KT 17/15 A2996 RMK A01 T01650150  RH  091%=      5-min Rain = 0
KOD1 160954Z 34005KT 17/15 A2996 RMK A01 T01660150  RH  090%=      5-min Rain = 0
KOD1 160955Z 33006KT 17/15 A2996 RMK A01 T01670150  RH  090%=      5-min Rain = 0
KOD1 160956Z 34006KT 17/15 A2996 RMK A01 T01670150  RH  089%=      5-min Rain = 0
KOD1 160957Z 35005KT 17/15 A2996 RMK A01 T01680150  RH  089%=      5-min Rain = 0
KOD1 160958Z 36005KT 17/15 A2996 RMK A01 T01680149  RH  089%=      5-min Rain = 0
KOD1 160959Z 00005KT 17/15 A2996 RMK A01 T01670148  RH  088%=      5-min Rain = 0
KOD1 161000Z 00006KT 17/15 A2996 RMK A01 T01660147  RH  088%=      5-min Rain = 0
KOD1 161001Z 01006KT 17/15 A2997 RMK A01 T01650147  RH  089%=      5-min Rain = 0
KOD1 161002Z 01006KT 17/15 A2997 RMK A01 T01650147  RH  089%=      5-min Rain = 0
KOD1 161003Z 02006KT 16/15 A2997 RMK A01 T01640147  RH  090%=      5-min Rain = 0
KOD1 161004Z 02006KT 16/15 A2996 RMK A01 T01630146  RH  090%=      5-min Rain = 0
KOD1 161005Z 01004KT 16/15 A2997 RMK A01 T01630146  RH  090%=      5-min Rain = 0
KOD1 161006Z 00004KT 16/15 A2997 RMK A01 T01620146  RH  090%=      5-min Rain = 0
KOD1 161007Z 35004KT 16/15 A2996 RMK A01 T01610146  RH  091%=      5-min Rain = 0
KOD1 161008Z 35004KT 16/15 A2996 RMK A01 T01610146  RH  091%=      5-min Rain = 0
KOD1 161009Z 34004KT 16/15 A2996 RMK A01 T01610147  RH  091%=      5-min Rain = 0
KOD1 161010Z 34004KT 16/15 A2996 RMK A01 T01620148  RH  092%=      5-min Rain = 0
KOD1 161011Z 34005KT 16/15 A2996 RMK A01 T01620149  RH  092%=      5-min Rain = 0
KOD1 161012Z 34005KT 16/15 A2996 RMK A01 T01630150  RH  092%=      5-min Rain = 0
KOD1 161013Z 34005KT 16/15 A2996 RMK A01 T01640150  RH  091%=      5-min Rain = 0
KOD1 161014Z 33006KT 17/15 A2996 RMK A01 T01650150  RH  091%=      5-min Rain = 0
KOD1 161015Z 33006KT 17/15 A2996 RMK A01 T01650150  RH  091%=      5-min Rain = 0
KOD1 161016Z 32005KT 17/15 A2996 RMK A01 T01660149  RH  090%=      5-min Rain = 0
KOD1 161017Z 32004KT 17/15 A2996 RMK A01 T01660149  RH  090%=      5-min Rain = 0
KOD1 161018Z 33005KT 17/15 A2996 RMK A01 T01660149  RH  090%=      5-min Rain = 0
KOD1 161019Z 33005KT 17/15 A2996 RMK A01 T01660149  RH  090%=      5-min Rain = 0
KOD1 161020Z 34005KT 17/15 A2996 RMK A01 T01660149  RH  090%=      5-min Rain = 0
KOD1 161021Z 34005KT 17/15 A2997 RMK A01 T01670150  RH  090%=      5-min Rain = 0
KOD1 161022Z 35005KT 17/15 A2997 RMK A01 T01670150  RH  090%=      5-min Rain = 0
KOD1 161023Z 36005KT 17/15 A2996 RMK A01 T01680150  RH  089%=      5-min Rain = 0
KOD1 161024Z 00005KT 17/15 A2996 RMK A01 T01670148  RH  088%=      5-min Rain = 0
KOD1 161025Z 00004KT 17/15 A2996 RMK A01 T01660146  RH  088%=      5-min Rain = 0
KOD1 161026Z 00003KT 17/15 A2996 RMK A01 T01660147  RH  089%=      5-min Rain = 0
KOD1 161027Z 01003KT 17/15 A2997 RMK A01 T01660148  RH  089%=      5-min Rain = 0
KOD1 161028Z 00002KT 17/15 A2997 RMK A01 T01670149  RH  089%=      5-min Rain = 0
KOD1 161029Z 35001KT 17/15 A2997 RMK A01 T01680149  RH  089%=      5-min Rain = 0
KOD1 161030Z 24002KT 17/15 A2997 RMK A01 T01690151  RH  089%=      5-min Rain = 0
KOD1 161031Z 23004KT 17/16 A2997 RMK A01 T01700155  RH  091%=      5-min Rain = 0
KOD1 161032Z 23005KT 17/16 A2998 RMK A01 T01710157  RH  091%=      5-min Rain = 0
KOD1 161033Z 24005KT 17/16 A2998 RMK A01 T01710158  RH  092%=      5-min Rain = 0
KOD1 161034Z 24005KT 17/16 A2998 RMK A01 T01710157  RH  091%=      5-min Rain = 0
KOD1 161035Z 24005KT 17/16 A2998 RMK A01 T01710156  RH  091%=      5-min Rain = 0
KOD1 161036Z 24004KT 17/16 A2998 RMK A01 T01710156  RH  091%=      5-min Rain = 0
KOD1 161037Z 24004KT 17/16 A2998 RMK A01 T01710156  RH  091%=      5-min Rain = 0
KOD1 161038Z 25003KT 17/16 A2998 RMK A01 T01710156  RH  091%=      5-min Rain = 0
KOD1 161039Z 25003KT 17/16 A2998 RMK A01 T01710156  RH  091%=      5-min Rain = 0
KOD1 161040Z 25004KT 17/16 A2998 RMK A01 T01710156  RH  091%=      5-min Rain = 0
KOD1 161041Z 24004KT 17/16 A2998 RMK A01 T01710157  RH  091%=      5-min Rain = 0
KOD1 161042Z 23004KT 17/16 A2998 RMK A01 T01720157  RH  091%=      5-min Rain = 0
KOD1 161043Z 23004KT 17/16 A2998 RMK A01 T01720158  RH  092%=      5-min Rain = 0
KOD1 161044Z 23004KT 17/16 A2998 RMK A01 T01730159  RH  092%=      5-min Rain = 0
KOD1 161045Z 23003KT 17/16 A2998 RMK A01 T01740160  RH  092%=      5-min Rain = 0
KOD1 161046Z 23003KT 17/16 A2998 RMK A01 T01740160  RH  092%=      5-min Rain = 0
KOD1 161047Z 23003KT 17/16 A2997 RMK A01 T01740160  RH  091%=      5-min Rain = 0
KOD1 161048Z 22002KT 17/16 A2997 RMK A01 T01740160  RH  091%=      5-min Rain = 0
KOD1 161049Z 22002KT 17/16 A2997 RMK A01 T01740159  RH  091%=      5-min Rain = 0
KOD1 161050Z 21002KT 17/16 A2997 RMK A01 T01740159  RH  091%=      5-min Rain = 0
KOD1 161051Z 20002KT 17/16 A2997 RMK A01 T01740159  RH  091%=      5-min Rain = 0
KOD1 161052Z 20002KT 17/16 A2997 RMK A01 T01740159  RH  091%=      5-min Rain = 0
KOD1 161053Z 20003KT 17/16 A2997 RMK A01 T01740159  RH  091%=      5-min Rain = 0
KOD1 161054Z 18003KT 17/16 A2996 RMK A01 T01740159  RH  091%=      5-min Rain = 0
KOD1 161055Z 17003KT 18/16 A2996 RMK A01 T01750160  RH  091%=      5-min Rain = 0
KOD1 161056Z 17003KT 18/16 A2996 RMK A01 T01750160  RH  091%=      5-min Rain = 0
KOD1 161057Z 18003KT 18/16 A2996 RMK A01 T01750160  RH  091%=      5-min Rain = 0
KOD1 161058Z 18003KT 18/16 A2996 RMK A01 T01750160  RH  091%=      5-min Rain = 0
KOD1 161059Z 17003KT 18/16 A2996 RMK A01 T01750160  RH  091%=      5-min Rain = 0
KOD1 161100Z 15003KT 18/16 A2996 RMK A01 T01750160  RH  091%=      5-min Rain = 0
KOD1 161101Z 16003KT 18/16 A2996 RMK A01 T01750159  RH  090%=      5-min Rain = 0
KOD1 161102Z 15002KT 17/16 A2996 RMK A01 T01740158  RH  090%=      5-min Rain = 0
KOD1 161103Z 10004KT 17/16 A2996 RMK A01 T01740158  RH  090%=      5-min Rain = 0
KOD1 161104Z 08004KT 17/16 A2996 RMK A01 T01730157  RH  090%=      5-min Rain = 0
KOD1 161105Z 08003KT 17/16 A2996 RMK A01 T01730157  RH  090%=      5-min Rain = 0
KOD1 161106Z 13003KT 17/16 A2996 RMK A01 T01720156  RH  090%=      5-min Rain = 0
KOD1 161107Z 11003KT 17/16 A2996 RMK A01 T01720155  RH  090%=      5-min Rain = 0
KOD1 161108Z 14003KT 17/16 A2996 RMK A01 T01720155  RH  090%=      5-min Rain = 0
KOD1 161109Z 16003KT 17/16 A2996 RMK A01 T01720155  RH  090%=      5-min Rain = 0
KOD1 161110Z 13004KT 17/16 A2996 RMK A01 T01720155  RH  090%=      5-min Rain = 0
KOD1 161111Z 11005KT 17/16 A2996 RMK A01 T01720155  RH  090%=      5-min Rain = 0
KOD1 161112Z 10006KT 17/15 A2995 RMK A01 T01720154  RH  089%=      5-min Rain = 0
KOD1 161113Z 11006KT 17/15 A2995 RMK A01 T01720154  RH  089%=      5-min Rain = 0
KOD1 161114Z 11006KT 17/15 A2995 RMK A01 T01720154  RH  089%=      5-min Rain = 0
KOD1 161115Z 13004KT 17/16 A2996 RMK A01 T01730155  RH  089%=      5-min Rain = 0
KOD1 161116Z 14004KT 17/16 A2996 RMK A01 T01730155  RH  089%=      5-min Rain = 0
KOD1 161117Z 12004KT 17/16 A2996 RMK A01 T01740155  RH  089%=      5-min Rain = 0
KOD1 161118Z 10003KT 17/16 A2996 RMK A01 T01740155  RH  089%=      5-min Rain = 0
KOD1 161119Z 10004KT 17/16 A2996 RMK A01 T01740155  RH  088%=      5-min Rain = 0
KOD1 161120Z 09003KT 17/15 A2996 RMK A01 T01740154  RH  088%=      5-min Rain = 0
KOD1 161121Z 10002KT 17/15 A2996 RMK A01 T01730154  RH  088%=      5-min Rain = 0
KOD1 161122Z 11001KT 17/15 A2996 RMK A01 T01730154  RH  088%=      5-min Rain = 0
KOD1 161123Z 11001KT 17/15 A2996 RMK A01 T01730154  RH  088%=      5-min Rain = 0
KOD1 161124Z 10002KT 17/15 A2996 RMK A01 T01730153  RH  088%=      5-min Rain = 0
KOD1 161125Z 09003KT 17/15 A2997 RMK A01 T01730154  RH  088%=      5-min Rain = 0
KOD1 161126Z 07003KT 17/15 A2997 RMK A01 T01730154  RH  088%=      5-min Rain = 0
KOD1 161127Z 06005KT 17/15 A2997 RMK A01 T01730153  RH  088%=      5-min Rain = 0
KOD1 161128Z 07004KT 17/15 A2997 RMK A01 T01720152  RH  088%=      5-min Rain = 0
KOD1 161129Z 10003KT 17/15 A2996 RMK A01 T01710152  RH  088%=      5-min Rain = 0
KOD1 161130Z 12004KT 17/15 A2996 RMK A01 T01720153  RH  089%=      5-min Rain = 0
KOD1 161131Z 13005KT 17/15 A2996 RMK A01 T01720153  RH  089%=      5-min Rain = 0
KOD1 161132Z 14005KT 17/15 A2995 RMK A01 T01720154  RH  089%=      5-min Rain = 0
KOD1 161133Z 15006KT 17/16 A2995 RMK A01 T01730155  RH  089%=      5-min Rain = 0
KOD1 161134Z 16006KT 17/16 A2995 RMK A01 T01730155  RH  089%=      5-min Rain = 0
KOD1 161135Z 17006KT 17/16 A2995 RMK A01 T01740156  RH  089%=      5-min Rain = 0
KOD1 161136Z 18006KT 17/16 A2995 RMK A01 T01740157  RH  090%=      5-min Rain = 0
KOD1 161137Z 19006KT 17/16 A2995 RMK A01 T01740157  RH  090%=      5-min Rain = 0
KOD1 161138Z 19005KT 18/16 A2995 RMK A01 T01750158  RH  090%=      5-min Rain = 0
KOD1 161139Z 20005KT 18/16 A2996 RMK A01 T01750157  RH  089%=      5-min Rain = 0
KOD1 161140Z 20005KT 18/16 A2996 RMK A01 T01760158  RH  089%=      5-min Rain = 0
KOD1 161141Z 20006KT 18/16 A2996 RMK A01 T01760158  RH  089%=      5-min Rain = 0
KOD1 161142Z 21005KT 18/16 A2996 RMK A01 T01760158  RH  089%=      5-min Rain = 0
KOD1 161143Z 21005KT 18/16 A2996 RMK A01 T01770158  RH  089%=      5-min Rain = 0
KOD1 161144Z 23005KT 18/16 A2996 RMK A01 T01770159  RH  089%=      5-min Rain = 0
KOD1 161145Z 24006KT 18/16 A2996 RMK A01 T01770159  RH  089%=      5-min Rain = 0
KOD1 161146Z 24006KT 18/16 A2996 RMK A01 T01780160  RH  089%=      5-min Rain = 0
KOD1 161147Z 24005KT 18/16 A2997 RMK A01 T01770160  RH  089%=      5-min Rain = 0
KOD1 161148Z 24004KT 18/16 A2997 RMK A01 T01780160  RH  089%=      5-min Rain = 0
KOD1 161149Z 25004KT 18/16 A2997 RMK A01 T01770160  RH  089%=      5-min Rain = 0
KOD1 161150Z 26005KT 18/16 A2998 RMK A01 T01770160  RH  089%=      5-min Rain = 0
KOD1 161151Z 28004KT 18/16 A2998 RMK A01 T01780160  RH  089%=      5-min Rain = 0
KOD1 161152Z 29005KT 18/16 A2998 RMK A01 T01780160  RH  089%=      5-min Rain = 0
KOD1 161153Z 30005KT 18/16 A2998 RMK A01 T01780160  RH  089%=      5-min Rain = 0
KOD1 161154Z 32006KT 18/16 A2999 RMK A01 T01780160  RH  089%=      5-min Rain = 0
KOD1 161155Z 32007KT 18/16 A2999 RMK A01 T01780161  RH  089%=      5-min Rain = 0
KOD1 161156Z 32007KT 18/16 A2999 RMK A01 T01780161  RH  090%=      5-min Rain = 0
KOD1 161157Z 32006KT 18/16 A2999 RMK A01 T01780161  RH  090%=      5-min Rain = 0
KOD1 161158Z 32006KT 18/16 A2999 RMK A01 T01780160  RH  090%=      5-min Rain = 0
KOD1 161159Z 31006KT 18/16 A2999 RMK A01 T01770160  RH  090%=      5-min Rain = 0
KOD1 161200Z 32005KT 18/16 A2998 RMK A01 T01770160  RH  089%=      5-min Rain = 0
KOD1 161201Z 35004KT 18/16 A2998 RMK A01 T01770159  RH  089%=      5-min Rain = 0
KOD1 161202Z 02006KT 18/16 A2998 RMK A01 T01780159  RH  089%=      5-min Rain = 0
KOD1 161203Z 03006KT 18/16 A2997 RMK A01 T01770159  RH  089%=      5-min Rain = 0
KOD1 161204Z 04005KT 18/16 A2997 RMK A01 T01770158  RH  089%=      5-min Rain = 0
KOD1 161205Z 05003KT 18/16 A2997 RMK A01 T01760158  RH  089%=      5-min Rain = 0
KOD1 161206Z 07001KT 18/16 A2996 RMK A01 T01760157  RH  089%=      5-min Rain = 0
KOD1 161207Z 15002KT 18/16 A2996 RMK A01 T01760158  RH  089%=      5-min Rain = 0
KOD1 161208Z 16003KT 18/16 A2996 RMK A01 T01770159  RH  089%=      5-min Rain = 0
KOD1 161209Z 16004KT 18/16 A2996 RMK A01 T01770160  RH  089%=      5-min Rain = 0
KOD1 161210Z 17004KT 18/16 A2996 RMK A01 T01780160  RH  089%=      5-min Rain = 0
KOD1 161211Z 17004KT 18/16 A2996 RMK A01 T01780160  RH  089%=      5-min Rain = 0
KOD1 161212Z 18004KT 18/16 A2996 RMK A01 T01780161  RH  090%=      5-min Rain = 0
KOD1 161213Z 18005KT 18/16 A2996 RMK A01 T01790162  RH  090%=      5-min Rain = 0
KOD1 161214Z 18004KT 18/16 A2997 RMK A01 T01790162  RH  090%=      5-min Rain = 0
KOD1 161215Z 19003KT 18/16 A2997 RMK A01 T01800162  RH  089%=      5-min Rain = 0
KOD1 161216Z 18002KT 18/16 A2998 RMK A01 T01800163  RH  089%=      5-min Rain = 0
KOD1 161217Z 09002KT 18/16 A2998 RMK A01 T01810163  RH  089%=      5-min Rain = 0
KOD1 161218Z 06005KT 18/16 A2999 RMK A01 T01820164  RH  089%=      5-min Rain = 0
KOD1 161219Z 05005KT 18/16 A2999 RMK A01 T01820163  RH  089%=      5-min Rain = 0
KOD1 161220Z 05004KT 18/16 A2999 RMK A01 T01820162  RH  088%=      5-min Rain = 0
KOD1 161221Z 01002KT 18/16 A2999 RMK A01 T01820162  RH  088%=      5-min Rain = 0
KOD1 161222Z 32003KT 18/16 A2999 RMK A01 T01820161  RH  087%=      5-min Rain = 0
KOD1 161223Z 36003KT 18/16 A2999 RMK A01 T01830160  RH  087%=      5-min Rain = 0
KOD1 161224Z 02007KT 18/16 A30 RMK A01 T01830161  RH  087%=      5-min Rain = 0
KOD1 161225Z 03008KT 18/16 A30 RMK A01 T01830162  RH  087%=      5-min Rain = 0
KOD1 161226Z 04006KT 18/16 A30 RMK A01 T01830162  RH  088%=      5-min Rain = 0
KOD1 161227Z 05005KT 18/16 A30 RMK A01 T01830163  RH  088%=      5-min Rain = 0
KOD1 161228Z 05006KT 18/16 A30 RMK A01 T01830162  RH  087%=      5-min Rain = 0
KOD1 161229Z 04007KT 18/16 A30 RMK A01 T01830162  RH  087%=      5-min Rain = 0
KOD1 161230Z 04007KT 18/16 A3001 RMK A01 T01830162  RH  087%=      5-min Rain = 0
KOD1 161231Z 04008KT 18/16 A3001 RMK A01 T01830161  RH  087%=      5-min Rain = 0
KOD1 161232Z 03009KT 18/16 A3001 RMK A01 T01820161  RH  088%=      5-min Rain = 0
KOD1 161233Z 03007KT 18/16 A3001 RMK A01 T01820162  RH  088%=      5-min Rain = 0
KOD1 161234Z 03007KT 18/16 A3001 RMK A01 T01820162  RH  088%=      5-min Rain = 0
KOD1 161235Z 03007KT 18/16 A3001 RMK A01 T01810162  RH  089%=      5-min Rain = 0
KOD1 161236Z 04005KT 18/16 A3001 RMK A01 T01810162  RH  089%=      5-min Rain = 0
KOD1 161237Z 04005KT 18/16 A3001 RMK A01 T01810163  RH  089%=      5-min Rain = 0
KOD1 161238Z 04006KT 18/16 A3001 RMK A01 T01810163  RH  089%=      5-min Rain = 0
KOD1 161239Z 04005KT 18/16 A3001 RMK A01 T01810163  RH  089%=      5-min Rain = 0
KOD1 161240Z 04004KT 18/16 A3001 RMK A01 T01810163  RH  089%=      5-min Rain = 0
KOD1 161241Z 03003KT 18/16 A3001 RMK A01 T01810164  RH  090%=      5-min Rain = 0
KOD1 161242Z 02004KT 18/16 A3001 RMK A01 T01810164  RH  090%=      5-min Rain = 0
KOD1 161243Z 02004KT 18/16 A3001 RMK A01 T01820164  RH  090%=      5-min Rain = 0
KOD1 161244Z 03004KT 18/17 A3001 RMK A01 T01830166  RH  090%=      5-min Rain = 0
KOD1 161245Z 02004KT 18/17 A3001 RMK A01 T01840167  RH  090%=      5-min Rain = 0
KOD1 161246Z 02005KT 19/17 A3001 RMK A01 T01850168  RH  090%=      5-min Rain = 0
KOD1 161247Z 03005KT 19/17 A3001 RMK A01 T01850167  RH  089%=      5-min Rain = 0
KOD1 161248Z 03005KT 19/17 A3001 RMK A01 T01860168  RH  089%=      5-min Rain = 0
KOD1 161249Z 03005KT 19/17 A3001 RMK A01 T01860168  RH  089%=      5-min Rain = 0
KOD1 161250Z 03005KT 19/17 A3001 RMK A01 T01870169  RH  089%=      5-min Rain = 0
KOD1 161251Z 05005KT 19/17 A3001 RMK A01 T01880170  RH  089%=      5-min Rain = 0
KOD1 161252Z 05004KT 19/17 A3001 RMK A01 T01890170  RH  089%=      5-min Rain = 0
KOD1 161253Z 04004KT 19/17 A3001 RMK A01 T01900171  RH  089%=      5-min Rain = 0
KOD1 161254Z 04004KT 19/17 A3001 RMK A01 T01910170  RH  088%=      5-min Rain = 0
KOD1 161255Z 04003KT 19/17 A3001 RMK A01 T01920171  RH  088%=      5-min Rain = 0
KOD1 161256Z 04003KT 19/17 A3001 RMK A01 T01930170  RH  086%=      5-min Rain = 0
KOD1 161257Z 05002KT 19/17 A3001 RMK A01 T01940170  RH  086%=      5-min Rain = 0
KOD1 161258Z 05002KT 20/17 A3001 RMK A01 T01950170  RH  085%=      5-min Rain = 0
KOD1 161259Z 05002KT 20/17 A3001 RMK A01 T01960168  RH  084%=      5-min Rain = 0
KOD1 161300Z 06003KT 20/17 A3001 RMK A01 T01970169  RH  084%=      5-min Rain = 0
KOD1 161301Z 08003KT 20/17 A3001 RMK A01 T01980167  RH  082%=      5-min Rain = 0
KOD1 161302Z 08003KT 20/17 A3001 RMK A01 T01990169  RH  082%=      5-min Rain = 0
KOD1 161303Z 09003KT 20/17 A3001 RMK A01 T02000168  RH  082%=      5-min Rain = 0
KOD1 161304Z 09004KT 20/17 A3001 RMK A01 T02010169  RH  082%=      5-min Rain = 0
KOD1 161305Z 09004KT 20/17 A3001 RMK A01 T02010168  RH  081%=      5-min Rain = 0
KOD1 161306Z 09003KT 20/17 A3001 RMK A01 T02020168  RH  081%=      5-min Rain = 0
KOD1 161307Z 10003KT 20/17 A3001 RMK A01 T02030168  RH  081%=      5-min Rain = 0
KOD1 161308Z 09003KT 20/17 A3001 RMK A01 T02040169  RH  081%=      5-min Rain = 0
KOD1 161309Z 11002KT 21/17 A3001 RMK A01 T02050169  RH  080%=      5-min Rain = 0
KOD1 161310Z 08002KT 21/17 A3001 RMK A01 T02060170  RH  080%=      5-min Rain = 0
KOD1 161311Z 10002KT 21/17 A3001 RMK A01 T02070170  RH  079%=      5-min Rain = 0
KOD1 161312Z 10003KT 21/17 A3001 RMK A01 T02080168  RH  078%=      5-min Rain = 0
KOD1 161313Z 11003KT 21/17 A3001 RMK A01 T02090169  RH  078%=      5-min Rain = 0
KOD1 161314Z 11003KT 21/17 A3001 RMK A01 T02100168  RH  077%=      5-min Rain = 0
KOD1 161315Z 12002KT 21/17 A3001 RMK A01 T02110165  RH  075%=      5-min Rain = 0
KOD1 161316Z 10002KT 21/17 A3001 RMK A01 T02120168  RH  076%=      5-min Rain = 0
KOD1 161317Z 08002KT 21/17 A3001 RMK A01 T02120166  RH  075%=      5-min Rain = 0
KOD1 161318Z 08001KT 21/16 A3001 RMK A01 T02120163  RH  074%=      5-min Rain = 0
KOD1 161319Z 08002KT 21/16 A3001 RMK A01 T02120163  RH  074%=      5-min Rain = 0
KOD1 161320Z 06002KT 21/16 A3001 RMK A01 T02120164  RH  074%=      5-min Rain = 0
KOD1 161321Z 04003KT 21/17 A3001 RMK A01 T02120165  RH  074%=      5-min Rain = 0
KOD1 161322Z 04004KT 21/17 A3001 RMK A01 T02130166  RH  075%=      5-min Rain = 0
KOD1 161323Z 04003KT 21/16 A3001 RMK A01 T02130164  RH  073%=      5-min Rain = 0
KOD1 161324Z 04003KT 21/17 A3001 RMK A01 T02130166  RH  074%=      5-min Rain = 0
KOD1 161325Z 05003KT 22/17 A3001 RMK A01 T02150168  RH  075%=      5-min Rain = 0
KOD1 161326Z 05003KT 22/16 A3001 RMK A01 T02150164  RH  073%=      5-min Rain = 0
KOD1 161327Z 04002KT 22/17 A3001 RMK A01 T02150165  RH  073%=      5-min Rain = 0
KOD1 161328Z 04003KT 22/17 A3001 RMK A01 T02160165  RH  073%=      5-min Rain = 0
KOD1 161329Z 04003KT 22/16 A3001 RMK A01 T02170164  RH  072%=      5-min Rain = 0
KOD1 161330Z 03004KT 22/16 A3002 RMK A01 T02180161  RH  070%=      5-min Rain = 0
KOD1 161331Z 03004KT 22/16 A3002 RMK A01 T02180162  RH  070%=      5-min Rain = 0
KOD1 161332Z 04004KT 22/17 A3002 RMK A01 T02200165  RH  071%=      5-min Rain = 0
KOD1 161333Z 05003KT 22/16 A3002 RMK A01 T02210164  RH  070%=      5-min Rain = 0
KOD1 161334Z 05003KT 22/17 A3002 RMK A01 T02220165  RH  070%=      5-min Rain = 0
KOD1 161335Z 01004KT 22/17 A3002 RMK A01 T02240166  RH  070%=      5-min Rain = 0
KOD1 161336Z 02005KT 22/16 A3002 RMK A01 T02240162  RH  068%=      5-min Rain = 0
KOD1 161337Z 04002KT 22/16 A3002 RMK A01 T02240163  RH  068%=      5-min Rain = 0
KOD1 161338Z 05003KT 22/16 A3002 RMK A01 T02240163  RH  069%=      5-min Rain = 0
KOD1 161339Z 05003KT 22/16 A3002 RMK A01 T02240163  RH  068%=      5-min Rain = 0
KOD1 161340Z 35003KT 22/16 A3003 RMK A01 T02240163  RH  068%=      5-min Rain = 0
KOD1 161341Z 35002KT 22/16 A3003 RMK A01 T02240161  RH  067%=      5-min Rain = 0
KOD1 161342Z 05001KT 23/16 A3003 RMK A01 T02250163  RH  068%=      5-min Rain = 0
KOD1 161343Z 02002KT 23/16 A3003 RMK A01 T02260163  RH  067%=      5-min Rain = 0
KOD1 161344Z 01003KT 23/16 A3003 RMK A01 T02270162  RH  067%=      5-min Rain = 0
KOD1 161345Z 02002KT 23/16 A3003 RMK A01 T02270160  RH  066%=      5-min Rain = 0
KOD1 161346Z 01003KT 23/16 A3003 RMK A01 T02280161  RH  066%=      5-min Rain = 0
KOD1 161347Z 01002KT 23/16 A3003 RMK A01 T02290157  RH  064%=      5-min Rain = 0
KOD1 161348Z 01001KT 23/16 A3003 RMK A01 T02290159  RH  065%=      5-min Rain = 0
KOD1 161349Z 33002KT 23/16 A3003 RMK A01 T02300163  RH  066%=      5-min Rain = 0
KOD1 161350Z 33003KT 23/16 A3003 RMK A01 T02300162  RH  065%=      5-min Rain = 0
KOD1 161351Z 34003KT 23/16 A3003 RMK A01 T02290160  RH  065%=      5-min Rain = 0
KOD1 161352Z 36002KT 23/16 A3003 RMK A01 T02290159  RH  065%=      5-min Rain = 0
KOD1 161353Z 33003KT 23/16 A3003 RMK A01 T02290164  RH  067%=      5-min Rain = 0
KOD1 161354Z 33004KT 23/17 A3003 RMK A01 T02290165  RH  067%=      5-min Rain = 0
KOD1 161355Z 01004KT 23/16 A3004 RMK A01 T02290162  RH  066%=      5-min Rain = 0
KOD1 161356Z 02002KT 23/16 A3004 RMK A01 T02280157  RH  064%=      5-min Rain = 0
KOD1 161357Z 34001KT 23/16 A3004 RMK A01 T02290158  RH  064%=      5-min Rain = 0
KOD1 161358Z 34002KT 23/16 A3004 RMK A01 T02290158  RH  064%=      5-min Rain = 0
KOD1 161359Z 35004KT 23/16 A3004 RMK A01 T02290162  RH  066%=      5-min Rain = 0
KOD1 161400Z 01003KT 23/16 A3004 RMK A01 T02280163  RH  066%=      5-min Rain = 0
KOD1 161401Z 01003KT 23/16 A3004 RMK A01 T02280160  RH  065%=      5-min Rain = 0
KOD1 161402Z 01002KT 23/16 A3004 RMK A01 T02270160  RH  066%=      5-min Rain = 0
KOD1 161403Z 00002KT 23/16 A3004 RMK A01 T02260158  RH  065%=      5-min Rain = 0
KOD1 161404Z 34001KT 23/16 A3004 RMK A01 T02250159  RH  066%=      5-min Rain = 0
KOD1 161405Z 32000KT 23/16 A3004 RMK A01 T02250158  RH  065%=      5-min Rain = 0
KOD1 161406Z 01001KT 23/16 A3004 RMK A01 T02260160  RH  067%=      5-min Rain = 0
KOD1 161407Z 02003KT 23/16 A3004 RMK A01 T02260160  RH  066%=      5-min Rain = 0
KOD1 161408Z 03004KT 23/16 A3004 RMK A01 T02260159  RH  066%=      5-min Rain = 0
KOD1 161409Z 05003KT 23/17 A3004 RMK A01 T02260165  RH  068%=      5-min Rain = 0
KOD1 161410Z 05003KT 23/16 A3004 RMK A01 T02270162  RH  067%=      5-min Rain = 0
KOD1 161411Z 06002KT 23/16 A3004 RMK A01 T02270161  RH  066%=      5-min Rain = 0
KOD1 161412Z 03002KT 23/16 A3004 RMK A01 T02270162  RH  067%=      5-min Rain = 0
KOD1 161413Z 01002KT 23/16 A3004 RMK A01 T02280162  RH  066%=      5-min Rain = 0
KOD1 161414Z 03001KT 23/16 A3004 RMK A01 T02280160  RH  065%=      5-min Rain = 0
KOD1 161415Z 04001KT 23/16 A3004 RMK A01 T02290162  RH  066%=      5-min Rain = 0
KOD1 161416Z 35000KT 23/16 A3004 RMK A01 T02290161  RH  065%=      5-min Rain = 0
KOD1 161417Z 32002KT 23/16 A3004 RMK A01 T02300164  RH  067%=      5-min Rain = 0
KOD1 161418Z 33002KT 23/17 A3004 RMK A01 T02300165  RH  067%=      5-min Rain = 0
KOD1 161419Z 31002KT 23/16 A3004 RMK A01 T02290163  RH  066%=      5-min Rain = 0
KOD1 161420Z 31002KT 23/16 A3004 RMK A01 T02290164  RH  067%=      5-min Rain = 0
KOD1 161421Z 32002KT 23/17 A3004 RMK A01 T02280165  RH  068%=      5-min Rain = 0
KOD1 161422Z 32002KT 23/17 A3004 RMK A01 T02280165  RH  067%=      5-min Rain = 0
KOD1 161423Z 33002KT 23/17 A3003 RMK A01 T02270165  RH  068%=      5-min Rain = 0
KOD1 161424Z 34002KT 23/16 A3003 RMK A01 T02270163  RH  067%=      5-min Rain = 0
KOD1 161425Z 33002KT 23/16 A3003 RMK A01 T02270161  RH  067%=      5-min Rain = 0
KOD1 161426Z 30001KT 23/16 A3003 RMK A01 T02260162  RH  067%=      5-min Rain = 0
KOD1 161427Z 29002KT 23/16 A3004 RMK A01 T02260164  RH  068%=      5-min Rain = 0
KOD1 161428Z 28002KT 23/16 A3004 RMK A01 T02260164  RH  068%=      5-min Rain = 0
KOD1 161429Z 24002KT 23/16 A3004 RMK A01 T02270164  RH  068%=      5-min Rain = 0
KOD1 161430Z 24003KT 23/16 A3004 RMK A01 T02260162  RH  067%=      5-min Rain = 0
KOD1 161431Z 24003KT 23/16 A3004 RMK A01 T02260159  RH  066%=      5-min Rain = 0
KOD1 161432Z 25002KT 23/16 A3004 RMK A01 T02250161  RH  067%=      5-min Rain = 0
KOD1 161433Z 25002KT 23/16 A3004 RMK A01 T02250161  RH  067%=      5-min Rain = 0
KOD1 161434Z 28001KT 23/16 A3004 RMK A01 T02250163  RH  068%=      5-min Rain = 0
KOD1 161435Z 24001KT 23/17 A3004 RMK A01 T02260166  RH  069%=      5-min Rain = 0
KOD1 161436Z 24002KT 23/16 A3004 RMK A01 T02270163  RH  067%=      5-min Rain = 0
KOD1 161437Z 26002KT 23/16 A3004 RMK A01 T02260160  RH  066%=      5-min Rain = 0
KOD1 161438Z 28001KT 23/16 A3004 RMK A01 T02260160  RH  066%=      5-min Rain = 0
KOD1 161439Z 27002KT 23/16 A3004 RMK A01 T02260160  RH  066%=      5-min Rain = 0
KOD1 161440Z 29003KT 23/16 A3004 RMK A01 T02270163  RH  067%=      5-min Rain = 0
KOD1 161441Z 28003KT 23/16 A3004 RMK A01 T02270159  RH  066%=      5-min Rain = 0
KOD1 161442Z 27002KT 23/16 A3004 RMK A01 T02260161  RH  067%=      5-min Rain = 0
KOD1 161443Z 25003KT 23/16 A3004 RMK A01 T02270161  RH  067%=      5-min Rain = 0
KOD1 161444Z 26004KT 23/16 A3004 RMK A01 T02270163  RH  067%=      5-min Rain = 0
KOD1 161445Z 27003KT 23/16 A3004 RMK A01 T02270159  RH  066%=      5-min Rain = 0
KOD1 161446Z 28003KT 23/16 A3004 RMK A01 T02270162  RH  067%=      5-min Rain = 0
KOD1 161447Z 28003KT 23/16 A3004 RMK A01 T02270162  RH  067%=      5-min Rain = 0
KOD1 161448Z 26003KT 23/16 A3004 RMK A01 T02270162  RH  067%=      5-min Rain = 0
KOD1 161449Z 26004KT 23/16 A3004 RMK A01 T02270162  RH  067%=      5-min Rain = 0
KOD1 161450Z 25002KT 23/16 A3004 RMK A01 T02270160  RH  066%=      5-min Rain = 0
KOD1 161451Z 28002KT 23/16 A3004 RMK A01 T02270162  RH  066%=      5-min Rain = 0
KOD1 161452Z 26002KT 23/16 A3004 RMK A01 T02280161  RH  066%=      5-min Rain = 0
KOD1 161453Z 26001KT 23/16 A3004 RMK A01 T02280158  RH  065%=      5-min Rain = 0
KOD1 161454Z 26002KT 23/16 A3004 RMK A01 T02280159  RH  065%=      5-min Rain = 0
KOD1 161455Z 22003KT 23/16 A3004 RMK A01 T02280161  RH  066%=      5-min Rain = 0
KOD1 161456Z 22002KT 23/16 A3004 RMK A01 T02280158  RH  065%=      5-min Rain = 0
KOD1 161457Z 23002KT 23/16 A3004 RMK A01 T02280159  RH  065%=      5-min Rain = 0
KOD1 161458Z 25003KT 23/16 A3004 RMK A01 T02280160  RH  065%=      5-min Rain = 0
KOD1 161459Z 25002KT 23/16 A3004 RMK A01 T02280158  RH  065%=      5-min Rain = 0
KOD1 161500Z 23001KT 23/16 A3003 RMK A01 T02290163  RH  066%=      5-min Rain = 0
KOD1 161501Z 22001KT 23/16 A3003 RMK A01 T02300160  RH  065%=      5-min Rain = 0
KOD1 161502Z 20001KT 23/16 A3003 RMK A01 T02300161  RH  065%=      5-min Rain = 0
KOD1 161503Z 18001KT 23/16 A3003 RMK A01 T02310161  RH  065%=      5-min Rain = 0
KOD1 161504Z 19001KT 23/16 A3003 RMK A01 T02310161  RH  065%=      5-min Rain = 0
KOD1 161505Z 23002KT 23/16 A3003 RMK A01 T02320160  RH  064%=      5-min Rain = 0
KOD1 161506Z 22002KT 23/16 A3003 RMK A01 T02320159  RH  064%=      5-min Rain = 0
KOD1 161507Z 24002KT 23/16 A3003 RMK A01 T02310159  RH  064%=      5-min Rain = 0
KOD1 161508Z 23001KT 23/16 A3003 RMK A01 T02310161  RH  064%=      5-min Rain = 0
KOD1 161509Z 24002KT 23/16 A3003 RMK A01 T02310160  RH  064%=      5-min Rain = 0
KOD1 161510Z 23002KT 23/16 A3004 RMK A01 T02310158  RH  063%=      5-min Rain = 0
KOD1 161511Z 22001KT 23/16 A3004 RMK A01 T02310160  RH  064%=      5-min Rain = 0
KOD1 161512Z 31002KT 23/16 A3004 RMK A01 T02320162  RH  065%=      5-min Rain = 0
KOD1 161513Z 30002KT 23/16 A3004 RMK A01 T02330160  RH  064%=      5-min Rain = 0
KOD1 161514Z 32003KT 23/16 A3004 RMK A01 T02330161  RH  064%=      5-min Rain = 0
KOD1 161515Z 32004KT 23/16 A3004 RMK A01 T02340164  RH  065%=      5-min Rain = 0
KOD1 161516Z 33003KT 23/16 A3004 RMK A01 T02340163  RH  064%=      5-min Rain = 0
KOD1 161517Z 32002KT 24/16 A3004 RMK A01 T02350163  RH  064%=      5-min Rain = 0
KOD1 161518Z 35001KT 24/16 A3004 RMK A01 T02350162  RH  063%=      5-min Rain = 0
KOD1 161519Z 11001KT 24/16 A3004 RMK A01 T02350161  RH  063%=      5-min Rain = 0
KOD1 161520Z 17001KT 24/16 A3004 RMK A01 T02360158  RH  062%=      5-min Rain = 0
KOD1 161521Z 16001KT 24/16 A3004 RMK A01 T02360158  RH  062%=      5-min Rain = 0
KOD1 161522Z 17001KT 24/16 A3003 RMK A01 T02360158  RH  061%=      5-min Rain = 0
KOD1 161523Z 17001KT 24/16 A3003 RMK A01 T02370157  RH  061%=      5-min Rain = 0
KOD1 161524Z 19001KT 24/16 A3003 RMK A01 T02370159  RH  062%=      5-min Rain = 0
KOD1 161525Z 18002KT 24/16 A3003 RMK A01 T02380163  RH  063%=      5-min Rain = 0
KOD1 161526Z 19002KT 24/16 A3003 RMK A01 T02370160  RH  062%=      5-min Rain = 0
KOD1 161527Z 15003KT 24/16 A3003 RMK A01 T02370162  RH  063%=      5-min Rain = 0
KOD1 161528Z 16000KT 24/16 A3004 RMK A01 T02370157  RH  061%=      5-min Rain = 0
KOD1 161529Z 18000KT 24/16 A3004 RMK A01 T02370159  RH  061%=      5-min Rain = 0
KOD1 161530Z 21001KT 24/16 A3004 RMK A01 T02380156  RH  060%=      5-min Rain = 0
KOD1 161531Z 24001KT 24/16 A3004 RMK A01 T02380157  RH  060%=      5-min Rain = 0
KOD1 161532Z 26001KT 24/16 A3004 RMK A01 T02380157  RH  060%=      5-min Rain = 0
KOD1 161533Z 28002KT 24/16 A3004 RMK A01 T02380161  RH  062%=      5-min Rain = 0
KOD1 161534Z 27002KT 24/16 A3005 RMK A01 T02390161  RH  062%=      5-min Rain = 0
KOD1 161535Z 25001KT 24/15 A3005 RMK A01 T02380153  RH  059%=      5-min Rain = 0
KOD1 161536Z 21001KT 24/16 A3005 RMK A01 T02380158  RH  060%=      5-min Rain = 0
KOD1 161537Z 21002KT 24/16 A3005 RMK A01 T02390157  RH  060%=      5-min Rain = 0
KOD1 161538Z 19002KT 24/16 A3005 RMK A01 T02380156  RH  060%=      5-min Rain = 0
KOD1 161539Z 19002KT 24/16 A3005 RMK A01 T02380158  RH  061%=      5-min Rain = 0
KOD1 161540Z 18001KT 24/15 A3005 RMK A01 T02370154  RH  060%=      5-min Rain = 0
KOD1 161541Z 19002KT 24/16 A3005 RMK A01 T02370158  RH  061%=      5-min Rain = 0
KOD1 161542Z 22003KT 24/16 A3005 RMK A01 T02370157  RH  061%=      5-min Rain = 0
KOD1 161543Z 21002KT 24/17 A3005 RMK A01 T02360165  RH  064%=      5-min Rain = 0
KOD1 161544Z 22003KT 24/17 A3005 RMK A01 T02370168  RH  065%=      5-min Rain = 0
KOD1 161545Z 21003KT 24/16 A3005 RMK A01 T02360161  RH  063%=      5-min Rain = 0
KOD1 161546Z 21002KT 24/16 A3005 RMK A01 T02350159  RH  062%=      5-min Rain = 0
KOD1 161547Z 20002KT 23/16 A3004 RMK A01 T02340157  RH  062%=      5-min Rain = 0
KOD1 161548Z 20001KT 23/16 A3005 RMK A01 T02330157  RH  062%=      5-min Rain = 0
KOD1 161549Z 22001KT 23/15 A3005 RMK A01 T02320153  RH  061%=      5-min Rain = 0
KOD1 161550Z 24001KT 23/15 A3005 RMK A01 T02320154  RH  062%=      5-min Rain = 0
KOD1 161551Z 24001KT 23/15 A3005 RMK A01 T02320154  RH  061%=      5-min Rain = 0
KOD1 161552Z 24001KT 23/16 A3005 RMK A01 T02320156  RH  062%=      5-min Rain = 0
KOD1 161553Z 26003KT 23/16 A3005 RMK A01 T02320163  RH  065%=      5-min Rain = 0
KOD1 161554Z 29002KT 23/16 A3005 RMK A01 T02320164  RH  066%=      5-min Rain = 0
KOD1 161555Z 30001KT 23/16 A3005 RMK A01 T02320164  RH  065%=      5-min Rain = 0
KOD1 161556Z 26002KT 23/16 A3005 RMK A01 T02320163  RH  065%=      5-min Rain = 0
KOD1 161557Z 26001KT 23/16 A3005 RMK A01 T02310161  RH  065%=      5-min Rain = 0
KOD1 161558Z 24002KT 23/16 A3005 RMK A01 T02310160  RH  064%=      5-min Rain = 0
KOD1 161559Z 25001KT 23/16 A3005 RMK A01 T02310159  RH  064%=      5-min Rain = 0
KOD1 161600Z 27002KT 23/16 A3005 RMK A01 T02310158  RH  063%=      5-min Rain = 0
KOD1 161601Z 28002KT 23/16 A3005 RMK A01 T02310157  RH  063%=      5-min Rain = 0
KOD1 161602Z 29003KT 23/16 A3006 RMK A01 T02310162  RH  065%=      5-min Rain = 0
KOD1 161603Z 30002KT 23/17 A3005 RMK A01 T02310167  RH  067%=      5-min Rain = 0
KOD1 161604Z 32003KT 23/16 A3005 RMK A01 T02310164  RH  066%=      5-min Rain = 0
KOD1 161605Z 32003KT 23/16 A3005 RMK A01 T02300164  RH  066%=      5-min Rain = 0
KOD1 161606Z 32003KT 23/17 A3005 RMK A01 T02300166  RH  067%=      5-min Rain = 0
KOD1 161607Z 32002KT 23/16 A3005 RMK A01 T02290161  RH  065%=      5-min Rain = 0
KOD1 161608Z 33002KT 23/16 A3005 RMK A01 T02290162  RH  066%=      5-min Rain = 0
KOD1 161609Z 33002KT 23/16 A3005 RMK A01 T02290162  RH  066%=      5-min Rain = 0
KOD1 161610Z 32002KT 23/16 A3005 RMK A01 T02290164  RH  067%=      5-min Rain = 0
KOD1 161611Z 32001KT 23/16 A3005 RMK A01 T02290162  RH  066%=      5-min Rain = 0
KOD1 161612Z 31001KT 23/16 A3005 RMK A01 T02280162  RH  066%=      5-min Rain = 0
KOD1 161613Z 34001KT 23/16 A3005 RMK A01 T02290162  RH  066%=      5-min Rain = 0
KOD1 161614Z 35000KT 23/16 A3005 RMK A01 T02280160  RH  065%=      5-min Rain = 0
KOD1 161615Z 08000KT 23/16 A3005 RMK A01 T02290163  RH  066%=      5-min Rain = 0
KOD1 161616Z 10001KT 23/16 A3005 RMK A01 T02290163  RH  066%=      5-min Rain = 0
KOD1 161617Z 08001KT 23/16 A3005 RMK A01 T02290162  RH  066%=      5-min Rain = 0
KOD1 161618Z 08001KT 23/16 A3005 RMK A01 T02290159  RH  065%=      5-min Rain = 0
KOD1 161619Z 06001KT 23/16 A3005 RMK A01 T02290158  RH  064%=      5-min Rain = 0
KOD1 161620Z 05001KT 23/16 A3005 RMK A01 T02290156  RH  063%=      5-min Rain = 0
KOD1 161621Z 02001KT 23/16 A3005 RMK A01 T02290158  RH  064%=      5-min Rain = 0
KOD1 161622Z 02002KT 23/16 A3005 RMK A01 T02290156  RH  063%=      5-min Rain = 0
KOD1 161623Z 01004KT 23/16 A3005 RMK A01 T02290156  RH  063%=      5-min Rain = 0
KOD1 161624Z 01005KT 23/16 A3005 RMK A01 T02290155  RH  063%=      5-min Rain = 0
KOD1 161625Z 01004KT 23/16 A3006 RMK A01 T02290155  RH  063%=      5-min Rain = 0
KOD1 161626Z 36004KT 23/16 A3006 RMK A01 T02290158  RH  064%=      5-min Rain = 0
KOD1 161627Z 35004KT 23/16 A3006 RMK A01 T02290159  RH  064%=      5-min Rain = 0
KOD1 161628Z 34004KT 23/16 A3006 RMK A01 T02290161  RH  066%=      5-min Rain = 0
KOD1 161629Z 34004KT 23/16 A3006 RMK A01 T02280160  RH  066%=      5-min Rain = 0
KOD1 161630Z 34004KT 23/16 A3006 RMK A01 T02280161  RH  066%=      5-min Rain = 0
KOD1 161631Z 33003KT 23/16 A3006 RMK A01 T02270158  RH  065%=      5-min Rain = 0
KOD1 161632Z 34002KT 23/16 A3006 RMK A01 T02270161  RH  066%=      5-min Rain = 0
KOD1 161633Z 34001KT 23/16 A3006 RMK A01 T02270160  RH  066%=      5-min Rain = 0
KOD1 161634Z 03000KT 23/16 A3005 RMK A01 T02270162  RH  066%=      5-min Rain = 0
KOD1 161635Z 12000KT 23/16 A3005 RMK A01 T02280161  RH  066%=      5-min Rain = 0
KOD1 161636Z 12001KT 23/16 A3004 RMK A01 T02270157  RH  065%=      5-min Rain = 0
KOD1 161637Z 14002KT 23/16 A3004 RMK A01 T02280158  RH  065%=      5-min Rain = 0
KOD1 161638Z 14003KT 23/16 A3004 RMK A01 T02280158  RH  065%=      5-min Rain = 0
KOD1 161639Z 14003KT 23/16 A3003 RMK A01 T02280158  RH  065%=      5-min Rain = 0
KOD1 161640Z 13002KT 23/16 A3003 RMK A01 T02280161  RH  066%=      5-min Rain = 0
KOD1 161641Z 07001KT 23/16 A3004 RMK A01 T02280163  RH  067%=      5-min Rain = 0
KOD1 161642Z 00003KT 23/16 A3005 RMK A01 T02280163  RH  067%=      5-min Rain = 0
KOD1 161643Z 35005KT 23/16 A3006 RMK A01 T02280162  RH  066%=      5-min Rain = 0
KOD1 161644Z 35006KT 23/16 A3006 RMK A01 T02280161  RH  066%=      5-min Rain = 0
KOD1 161645Z 34006KT 23/16 A3006 RMK A01 T02280164  RH  067%=      5-min Rain = 0
KOD1 161646Z 35006KT 23/16 A3006 RMK A01 T02280162  RH  066%=      5-min Rain = 0
KOD1 161647Z 34006KT 23/16 A3006 RMK A01 T02280163  RH  067%=      5-min Rain = 0
KOD1 161648Z 35006KT 23/17 A3006 RMK A01 T02270165  RH  068%=      5-min Rain = 0
KOD1 161649Z 36005KT 23/17 A3006 RMK A01 T02270167  RH  069%=      5-min Rain = 0
KOD1 161650Z 00006KT 23/17 A3005 RMK A01 T02260166  RH  068%=      5-min Rain = 0
KOD1 161651Z 00005KT 23/16 A3005 RMK A01 T02260162  RH  067%=      5-min Rain = 0
KOD1 161652Z 02004KT 23/16 A3005 RMK A01 T02260162  RH  067%=      5-min Rain = 0
KOD1 161653Z 03004KT 23/16 A3004 RMK A01 T02260160  RH  066%=      5-min Rain = 0
KOD1 161654Z 06002KT 23/16 A3004 RMK A01 T02260163  RH  067%=      5-min Rain = 0
KOD1 161655Z 05003KT 23/16 A3004 RMK A01 T02270162  RH  067%=      5-min Rain = 0
KOD1 161656Z 03003KT 23/16 A3004 RMK A01 T02260157  RH  065%=      5-min Rain = 0
KOD1 161657Z 00004KT 23/16 A3004 RMK A01 T02270158  RH  065%=      5-min Rain = 0
KOD1 161658Z 35004KT 23/16 A3004 RMK A01 T02270161  RH  066%=      5-min Rain = 0
KOD1 161659Z 34005KT 23/16 A3004 RMK A01 T02270160  RH  066%=      5-min Rain = 0
KOD1 161700Z 35004KT 23/16 A3004 RMK A01 T02270161  RH  066%=      5-min Rain = 0
KOD1 161701Z 33005KT 23/16 A3004 RMK A01 T02270162  RH  067%=      5-min Rain = 0
KOD1 161702Z 32006KT 23/16 A3005 RMK A01 T02270163  RH  067%=      5-min Rain = 0
KOD1 161703Z 31005KT 23/16 A3005 RMK A01 T02270162  RH  066%=      5-min Rain = 0
KOD1 161704Z 30005KT 23/16 A3005 RMK A01 T02270159  RH  065%=      5-min Rain = 0
KOD1 161705Z 30004KT 23/16 A3004 RMK A01 T02270159  RH  065%=      5-min Rain = 0
KOD1 161706Z 30003KT 23/16 A3004 RMK A01 T02270160  RH  066%=      5-min Rain = 0
KOD1 161707Z 31004KT 23/16 A3004 RMK A01 T02280163  RH  067%=      5-min Rain = 0
KOD1 161708Z 31005KT 23/16 A3004 RMK A01 T02280163  RH  067%=      5-min Rain = 0
KOD1 161709Z 31004KT 23/16 A3004 RMK A01 T02280161  RH  066%=      5-min Rain = 0
KOD1 161710Z 28003KT 23/16 A3004 RMK A01 T02280163  RH  067%=      5-min Rain = 0
KOD1 161711Z 27003KT 23/16 A3004 RMK A01 T02280162  RH  066%=      5-min Rain = 0
KOD1 161712Z 29003KT 23/16 A3004 RMK A01 T02280161  RH  066%=      5-min Rain = 0
KOD1 161713Z 32003KT 23/16 A3004 RMK A01 T02290163  RH  067%=      5-min Rain = 0
KOD1 161714Z 33003KT 23/17 A3004 RMK A01 T02290165  RH  067%=      5-min Rain = 0
KOD1 161715Z 33004KT 23/16 A3004 RMK A01 T02300162  RH  065%=      5-min Rain = 0
KOD1 161716Z 32003KT 23/16 A3004 RMK A01 T02300163  RH  066%=      5-min Rain = 0
KOD1 161717Z 33003KT 23/16 A3004 RMK A01 T02300162  RH  066%=      5-min Rain = 0
KOD1 161718Z 33002KT 23/16 A3003 RMK A01 T02300161  RH  065%=      5-min Rain = 0
KOD1 161719Z 33001KT 23/16 A3003 RMK A01 T02300161  RH  065%=      5-min Rain = 0
KOD1 161720Z 30001KT 23/16 A3003 RMK A01 T02300164  RH  066%=      5-min Rain = 0
KOD1 161721Z 12000KT 23/16 A3002 RMK A01 T02310161  RH  065%=      5-min Rain = 0
KOD1 161722Z 13004KT 23/16 A3002 RMK A01 T02310163  RH  065%=      5-min Rain = 0
KOD1 161723Z 14005KT 23/16 A3001 RMK A01 T02310159  RH  064%=      5-min Rain = 0
KOD1 161724Z 16005KT 23/16 A3001 RMK A01 T02310160  RH  064%=      5-min Rain = 0
KOD1 161725Z 17004KT 23/16 A3001 RMK A01 T02300160  RH  065%=      5-min Rain = 0
KOD1 161726Z 20004KT 23/16 A3002 RMK A01 T02300163  RH  066%=      5-min Rain = 0
KOD1 161727Z 21004KT 23/16 A3002 RMK A01 T02300159  RH  064%=      5-min Rain = 0
KOD1 161728Z 19004KT 23/16 A3002 RMK A01 T02290160  RH  065%=      5-min Rain = 0
KOD1 161729Z 18004KT 23/16 A3001 RMK A01 T02290160  RH  065%=      5-min Rain = 0
KOD1 161730Z 19005KT 23/16 A3001 RMK A01 T02280163  RH  066%=      5-min Rain = 0
KOD1 161731Z 15005KT 23/16 A3001 RMK A01 T02290163  RH  067%=      5-min Rain = 0
KOD1 161732Z 13004KT 23/16 A3001 RMK A01 T02280161  RH  066%=      5-min Rain = 0
KOD1 161733Z 13003KT 23/16 A3001 RMK A01 T02290164  RH  067%=      5-min Rain = 0
KOD1 161734Z 03001KT 23/16 A3002 RMK A01 T02290162  RH  066%=      5-min Rain = 0
KOD1 161735Z 02002KT 23/16 A3002 RMK A01 T02290161  RH  065%=      5-min Rain = 0
KOD1 161736Z 02003KT 23/16 A3002 RMK A01 T02300163  RH  066%=      5-min Rain = 0
KOD1 161737Z 02004KT 23/16 A3003 RMK A01 T02300161  RH  065%=      5-min Rain = 0
KOD1 161738Z 00005KT 23/16 A3003 RMK A01 T02310164  RH  066%=      5-min Rain = 0
KOD1 161739Z 35005KT 23/16 A3003 RMK A01 T02310162  RH  065%=      5-min Rain = 0
KOD1 161740Z 34004KT 23/16 A3003 RMK A01 T02310162  RH  065%=      5-min Rain = 0
KOD1 161741Z 32003KT 23/16 A3003 RMK A01 T02310163  RH  065%=      5-min Rain = 0
KOD1 161742Z 32004KT 23/17 A3003 RMK A01 T02320166  RH  066%=      5-min Rain = 0
KOD1 161743Z 32005KT 23/17 A3003 RMK A01 T02320168  RH  067%=      5-min Rain = 0
KOD1 161744Z 33004KT 23/17 A3003 RMK A01 T02320166  RH  067%=      5-min Rain = 0
KOD1 161745Z 34004KT 23/17 A3003 RMK A01 T02320168  RH  067%=      5-min Rain = 0
KOD1 161746Z 01003KT 23/16 A3002 RMK A01 T02310163  RH  065%=      5-min Rain = 0
KOD1 161747Z 05002KT 23/16 A3001 RMK A01 T02310163  RH  065%=      5-min Rain = 0
KOD1 161748Z 06002KT 23/16 A3001 RMK A01 T02320164  RH  066%=      5-min Rain = 0
KOD1 161749Z 07003KT 23/16 A30 RMK A01 T02310161  RH  065%=      5-min Rain = 0
KOD1 161750Z 08004KT 23/16 A30 RMK A01 T02310161  RH  065%=      5-min Rain = 0
KOD1 161751Z 08005KT 23/16 A2999 RMK A01 T02310162  RH  065%=      5-min Rain = 0
KOD1 161752Z 08005KT 23/16 A2999 RMK A01 T02300164  RH  066%=      5-min Rain = 0
KOD1 161753Z 08005KT 23/17 A2999 RMK A01 T02310166  RH  067%=      5-min Rain = 0
KOD1 161754Z 08005KT 23/17 A2999 RMK A01 T02310166  RH  067%=      5-min Rain = 0
KOD1 161755Z 06005KT 23/17 A2999 RMK A01 T02310166  RH  067%=      5-min Rain = 0
KOD1 161756Z 05005KT 23/16 A30 RMK A01 T02320163  RH  065%=      5-min Rain = 0
KOD1 161757Z 06004KT 23/16 A30 RMK A01 T02320159  RH  064%=      5-min Rain = 0
KOD1 161758Z 07003KT 23/16 A30 RMK A01 T02320163  RH  065%=      5-min Rain = 0
KOD1 161759Z 06004KT 23/17 A30 RMK A01 T02320165  RH  066%=      5-min Rain = 0
KOD1 161800Z 04005KT 23/16 A3001 RMK A01 T02320163  RH  065%=      5-min Rain = 0
KOD1 161801Z 02005KT 23/16 A3001 RMK A01 T02330162  RH  065%=      5-min Rain = 0
KOD1 161802Z 35006KT 23/17 A3002 RMK A01 T02330165  RH  065%=      5-min Rain = 0
KOD1 161803Z 34008KT 24/17 A3003 RMK A01 T02350168  RH  066%=      5-min Rain = 0
KOD1 161804Z 33009KT 24/17 A3003 RMK A01 T02370173  RH  067%=      5-min Rain = 0
KOD1 161805Z 34008KT 24/17 A3003 RMK A01 T02380169  RH  066%=      5-min Rain = 0
KOD1 161806Z 34008KT 24/17 A3003 RMK A01 T02380168  RH  065%=      5-min Rain = 0
KOD1 161807Z 34007KT 24/17 A3003 RMK A01 T02390169  RH  065%=      5-min Rain = 0
KOD1 161808Z 36007KT 24/17 A3003 RMK A01 T02400170  RH  065%=      5-min Rain = 0
KOD1 161809Z 33005KT 24/18 A3003 RMK A01 T02420175  RH  066%=      5-min Rain = 0
KOD1 161810Z 31006KT 24/18 A3003 RMK A01 T02440178  RH  066%=      5-min Rain = 0
KOD1 161811Z 31006KT 25/18 A3002 RMK A01 T02450176  RH  065%=      5-min Rain = 0
KOD1 161812Z 30002KT 25/17 A3002 RMK A01 T02450170  RH  063%=      5-min Rain = 0
KOD1 161813Z 26002KT 24/17 A3001 RMK A01 T02440171  RH  064%=      5-min Rain = 0
KOD1 161814Z 21002KT 24/17 A3001 RMK A01 T02430170  RH  063%=      5-min Rain = 0
KOD1 161815Z 23003KT 24/17 A3001 RMK A01 T02420168  RH  063%=      5-min Rain = 0
KOD1 161816Z 24002KT 24/16 A3001 RMK A01 T02420163  RH  062%=      5-min Rain = 0
KOD1 161817Z 21001KT 24/16 A3001 RMK A01 T02420161  RH  061%=      5-min Rain = 0
KOD1 161818Z 26001KT 24/17 A3001 RMK A01 T02430168  RH  063%=      5-min Rain = 0
KOD1 161819Z 20002KT 25/17 A3001 RMK A01 T02450168  RH  062%=      5-min Rain = 0
KOD1 161820Z 19002KT 25/17 A30 RMK A01 T02460166  RH  061%=      5-min Rain = 0
KOD1 161821Z 17003KT 25/17 A30 RMK A01 T02470166  RH  061%=      5-min Rain = 0
KOD1 161822Z 16002KT 25/17 A30 RMK A01 T02480168  RH  061%=      5-min Rain = 0
KOD1 161823Z 16002KT 25/17 A30 RMK A01 T02490166  RH  060%=      5-min Rain = 0
KOD1 161824Z 15001KT 25/17 A30 RMK A01 T02490165  RH  060%=      5-min Rain = 0
KOD1 161825Z 21000KT 25/17 A30 RMK A01 T02490169  RH  061%=      5-min Rain = 0
KOD1 161826Z 10003KT 25/17 A30 RMK A01 T02500166  RH  060%=      5-min Rain = 0
KOD1 161827Z 10005KT 25/16 A30 RMK A01 T02500161  RH  058%=      5-min Rain = 0
KOD1 161828Z 08005KT 25/16 A30 RMK A01 T02500156  RH  056%=      5-min Rain = 0
KOD1 161829Z 07006KT 25/15 A2999 RMK A01 T02500154  RH  055%=      5-min Rain = 0
KOD1 161830Z 06004KT 25/15 A2999 RMK A01 T02490150  RH  054%=      5-min Rain = 0
KOD1 161831Z 04004KT 25/15 A2999 RMK A01 T02500153  RH  055%=      5-min Rain = 0
KOD1 161832Z 04005KT 25/16 A2999 RMK A01 T02510157  RH  056%=      5-min Rain = 0
KOD1 161833Z 05006KT 25/15 A2999 RMK A01 T02530154  RH  054%=      5-min Rain = 0
KOD1 161834Z 03006KT 25/15 A2999 RMK A01 T02540149  RH  052%=      5-min Rain = 0
KOD1 161835Z 02005KT 26/15 A2999 RMK A01 T02550147  RH  051%=      5-min Rain = 0
KOD1 161836Z 02005KT 26/16 A2999 RMK A01 T02570155  RH  053%=      5-min Rain = 0
KOD1 161837Z 03005KT 26/16 A2999 RMK A01 T02570157  RH  054%=      5-min Rain = 0
KOD1 161838Z 05006KT 26/16 A2999 RMK A01 T02580161  RH  055%=      5-min Rain = 0
KOD1 161839Z 05007KT 26/16 A2999 RMK A01 T02580156  RH  053%=      5-min Rain = 0
KOD1 161840Z 04006KT 26/16 A2999 RMK A01 T02570158  RH  054%=      5-min Rain = 0
KOD1 161841Z 04008KT 26/15 A2999 RMK A01 T02590154  RH  052%=      5-min Rain = 0
KOD1 161842Z 03007KT 26/15 A2999 RMK A01 T02600149  RH  050%=      5-min Rain = 0
KOD1 161843Z 04006KT 26/15 A2999 RMK A01 T02600151  RH  051%=      5-min Rain = 0
KOD1 161844Z 05007KT 26/16 A2999 RMK A01 T02610155  RH  052%=      5-min Rain = 0
KOD1 161845Z 04006KT 26/16 A2999 RMK A01 T02610157  RH  053%=      5-min Rain = 0
KOD1 161846Z 01007KT 26/15 A2999 RMK A01 T02610150  RH  051%=      5-min Rain = 0
KOD1 161847Z 03007KT 26/16 A2999 RMK A01 T02600155  RH  052%=      5-min Rain = 0
KOD1 161848Z 03006KT 26/15 A2999 RMK A01 T02600154  RH  052%=      5-min Rain = 0
KOD1 161849Z 01006KT 26/16 A2999 RMK A01 T02600156  RH  053%=      5-min Rain = 0
KOD1 161850Z 03007KT 26/16 A2999 RMK A01 T02600161  RH  054%=      5-min Rain = 0
KOD1 161851Z 03008KT 26/15 A2999 RMK A01 T02610154  RH  052%=      5-min Rain = 0
KOD1 161852Z 01006KT 26/16 A2999 RMK A01 T02590155  RH  052%=      5-min Rain = 0
KOD1 161853Z 02006KT 26/16 A2999 RMK A01 T02600161  RH  054%=      5-min Rain = 0
KOD1 161854Z 03007KT 26/16 A2999 RMK A01 T02620160  RH  054%=      5-min Rain = 0
KOD1 161855Z 02007KT 26/16 A2999 RMK A01 T02630155  RH  051%=      5-min Rain = 0
KOD1 161856Z 02007KT 26/15 A2999 RMK A01 T02610154  RH  052%=      5-min Rain = 0
KOD1 161857Z 02007KT 26/16 A2999 RMK A01 T02610157  RH  053%=      5-min Rain = 0
KOD1 161858Z 02005KT 26/16 A2999 RMK A01 T02610157  RH  053%=      5-min Rain = 0
KOD1 161859Z 00006KT 26/16 A2999 RMK A01 T02620156  RH  052%=      5-min Rain = 0
KOD1 161900Z 02005KT 26/16 A2999 RMK A01 T02620155  RH  051%=      5-min Rain = 0
KOD1 161901Z 03004KT 26/16 A2999 RMK A01 T02620156  RH  052%=      5-min Rain = 0
KOD1 161902Z 00004KT 26/16 A2999 RMK A01 T02630156  RH  052%=      5-min Rain = 0
KOD1 161903Z 35003KT 26/16 A2999 RMK A01 T02640155  RH  051%=      5-min Rain = 0
KOD1 161904Z 36006KT 27/16 A2999 RMK A01 T02650159  RH  052%=      5-min Rain = 0
KOD1 161905Z 02004KT 27/16 A2999 RMK A01 T02670160  RH  052%=      5-min Rain = 0
KOD1 161906Z 02004KT 27/16 A2999 RMK A01 T02690159  RH  051%=      5-min Rain = 0
KOD1 161907Z 36006KT 27/15 A2999 RMK A01 T02680152  RH  049%=      5-min Rain = 0
KOD1 161908Z 36003KT 27/16 A2999 RMK A01 T02660155  RH  050%=      5-min Rain = 0
KOD1 161909Z 34003KT 27/16 A2999 RMK A01 T02660156  RH  051%=      5-min Rain = 0
KOD1 161910Z 01005KT 27/16 A2999 RMK A01 T02660155  RH  051%=      5-min Rain = 0
KOD1 161911Z 03005KT 27/15 A2999 RMK A01 T02660152  RH  050%=      5-min Rain = 0
KOD1 161912Z 03004KT 26/15 A2999 RMK A01 T02640153  RH  050%=      5-min Rain = 0
KOD1 161913Z 05004KT 26/16 A2999 RMK A01 T02630155  RH  051%=      5-min Rain = 0
KOD1 161914Z 35003KT 26/16 A2999 RMK A01 T02640163  RH  054%=      5-min Rain = 0
KOD1 161915Z 00006KT 27/16 A2999 RMK A01 T02670157  RH  051%=      5-min Rain = 0
KOD1 161916Z 00004KT 27/16 A2999 RMK A01 T02670155  RH  050%=      5-min Rain = 0
KOD1 161917Z 33004KT 27/16 A2999 RMK A01 T02670158  RH  051%=      5-min Rain = 0
KOD1 161918Z 30004KT 27/16 A2999 RMK A01 T02670157  RH  051%=      5-min Rain = 0
KOD1 161919Z 30003KT 27/16 A2999 RMK A01 T02670158  RH  051%=      5-min Rain = 0
KOD1 161920Z 28002KT 27/15 A2999 RMK A01 T02670154  RH  050%=      5-min Rain = 0
KOD1 161921Z 28001KT 27/16 A2999 RMK A01 T02670159  RH  052%=      5-min Rain = 0
KOD1 161922Z 00001KT 27/16 A2999 RMK A01 T02680159  RH  051%=      5-min Rain = 0
KOD1 161923Z 33005KT 27/15 A2998 RMK A01 T02690153  RH  049%=      5-min Rain = 0
KOD1 161924Z 35007KT 27/15 A2998 RMK A01 T02700148  RH  047%=      5-min Rain = 0
KOD1 161925Z 35007KT 27/15 A2998 RMK A01 T02700147  RH  047%=      5-min Rain = 0
KOD1 161926Z 32008KT 27/15 A2998 RMK A01 T02700153  RH  049%=      5-min Rain = 0
KOD1 161927Z 32005KT 27/15 A2998 RMK A01 T02710146  RH  046%=      5-min Rain = 0
KOD1 161928Z 31003KT 27/15 A2998 RMK A01 T02710145  RH  046%=      5-min Rain = 0
KOD1 161929Z 31002KT 27/15 A2998 RMK A01 T02710154  RH  049%=      5-min Rain = 0
KOD1 161930Z 03004KT 27/15 A2998 RMK A01 T02730152  RH  048%=      5-min Rain = 0
KOD1 161931Z 01002KT 27/15 A2998 RMK A01 T02740150  RH  047%=      5-min Rain = 0
KOD1 161932Z 31003KT 28/15 A2998 RMK A01 T02750151  RH  047%=      5-min Rain = 0
KOD1 161933Z 30001KT 28/15 A2998 RMK A01 T02750148  RH  046%=      5-min Rain = 0
KOD1 161934Z 35004KT 28/15 A2998 RMK A01 T02750152  RH  047%=      5-min Rain = 0
KOD1 161935Z 00005KT 28/15 A2998 RMK A01 T02760150  RH  046%=      5-min Rain = 0
KOD1 161936Z 00004KT 28/15 A2998 RMK A01 T02770150  RH  046%=      5-min Rain = 0
KOD1 161937Z 36004KT 28/15 A2998 RMK A01 T02770150  RH  046%=      5-min Rain = 0
KOD1 161938Z 33004KT 28/15 A2998 RMK A01 T02760151  RH  046%=      5-min Rain = 0
KOD1 161939Z 32003KT 28/15 A2998 RMK A01 T02760147  RH  045%=      5-min Rain = 0
KOD1 161940Z 30003KT 28/15 A2998 RMK A01 T02760151  RH  047%=      5-min Rain = 0
KOD1 161941Z 33005KT 28/15 A2998 RMK A01 T02760152  RH  047%=      5-min Rain = 0
KOD1 161942Z 33003KT 28/15 A2998 RMK A01 T02760149  RH  046%=      5-min Rain = 0
KOD1 161943Z 34006KT 28/15 A2998 RMK A01 T02760154  RH  047%=      5-min Rain = 0
KOD1 161944Z 00005KT 28/15 A2998 RMK A01 T02760148  RH  045%=      5-min Rain = 0
KOD1 161945Z 01006KT 28/15 A2997 RMK A01 T02760151  RH  046%=      5-min Rain = 0
KOD1 161946Z 01006KT 28/15 A2997 RMK A01 T02760150  RH  046%=      5-min Rain = 0
KOD1 161947Z 01007KT 28/15 A2997 RMK A01 T02760153  RH  047%=      5-min Rain = 0
KOD1 161948Z 02006KT 28/15 A2997 RMK A01 T02770153  RH  047%=      5-min Rain = 0
KOD1 161949Z 35005KT 28/16 A2997 RMK A01 T02770157  RH  048%=      5-min Rain = 0
KOD1 161950Z 35006KT 28/15 A2997 RMK A01 T02790154  RH  046%=      5-min Rain = 0
KOD1 161951Z 34005KT 28/15 A2997 RMK A01 T02790153  RH  046%=      5-min Rain = 0
KOD1 161952Z 34009KT 28/15 A2997 RMK A01 T02800154  RH  046%=      5-min Rain = 0
KOD1 161953Z 34008KT 28/15 A2997 RMK A01 T02800154  RH  046%=      5-min Rain = 0
KOD1 161954Z 34007KT 28/15 A2997 RMK A01 T02800151  RH  045%=      5-min Rain = 0
KOD1 161955Z 35005KT 28/15 A2997 RMK A01 T02790152  RH  046%=      5-min Rain = 0
KOD1 161956Z 35005KT 28/15 A2997 RMK A01 T02790152  RH  046%=      5-min Rain = 0
KOD1 161957Z 36004KT 28/15 A2997 RMK A01 T02790150  RH  045%=      5-min Rain = 0
KOD1 161958Z 33003KT 28/15 A2997 RMK A01 T02780150  RH  046%=      5-min Rain = 0
KOD1 161959Z 00004KT 28/15 A2997 RMK A01 T02780153  RH  047%=      5-min Rain = 0
KOD1 162000Z 03003KT 28/15 A2997 RMK A01 T02780149  RH  045%=      5-min Rain = 0
KOD1 162001Z 01004KT 28/15 A2997 RMK A01 T02780152  RH  046%=      5-min Rain = 0
KOD1 162002Z 34004KT 28/15 A2997 RMK A01 T02790153  RH  046%=      5-min Rain = 0
KOD1 162003Z 35007KT 28/15 A2997 RMK A01 T02790153  RH  046%=      5-min Rain = 0
KOD1 162004Z 34006KT 28/15 A2997 RMK A01 T02810150  RH  045%=      5-min Rain = 0
KOD1 162005Z 34003KT 28/15 A2997 RMK A01 T02810150  RH  045%=      5-min Rain = 0
KOD1 162006Z 32005KT 28/15 A2997 RMK A01 T02830152  RH  045%=      5-min Rain = 0
KOD1 162007Z 34003KT 28/15 A2996 RMK A01 T02840146  RH  043%=      5-min Rain = 0
KOD1 162008Z 02003KT 28/15 A2996 RMK A01 T02840149  RH  044%=      5-min Rain = 0
KOD1 162009Z 02003KT 28/15 A2996 RMK A01 T02840145  RH  043%=      5-min Rain = 0
KOD1 162010Z 02005KT 28/15 A2996 RMK A01 T02840154  RH  045%=      5-min Rain = 0
KOD1 162011Z 03005KT 29/16 A2996 RMK A01 T02850159  RH  046%=      5-min Rain = 0
KOD1 162012Z 03003KT 29/15 A2996 RMK A01 T02860153  RH  044%=      5-min Rain = 0
KOD1 162013Z 02002KT 29/16 A2996 RMK A01 T02870156  RH  045%=      5-min Rain = 0
KOD1 162014Z 32003KT 29/16 A2996 RMK A01 T02880159  RH  046%=      5-min Rain = 0
KOD1 162015Z 31003KT 29/16 A2996 RMK A01 T02890158  RH  045%=      5-min Rain = 0
KOD1 162016Z 28001KT 29/16 A2996 RMK A01 T02900155  RH  044%=      5-min Rain = 0
KOD1 162017Z 01001KT 29/16 A2996 RMK A01 T02900164  RH  047%=      5-min Rain = 0
KOD1 162018Z 06003KT 29/16 A2996 RMK A01 T02910157  RH  044%=      5-min Rain = 0
KOD1 162019Z 06005KT 29/15 A2996 RMK A01 T02910154  RH  043%=      5-min Rain = 0
KOD1 162020Z 06005KT 29/15 A2996 RMK A01 T02910151  RH  043%=      5-min Rain = 0
KOD1 162021Z 00006KT 29/15 A2996 RMK A01 T02900151  RH  043%=      5-min Rain = 0
KOD1 162022Z 34006KT 29/15 A2996 RMK A01 T02900149  RH  042%=      5-min Rain = 0
KOD1 162023Z 33004KT 29/15 A2996 RMK A01 T02890149  RH  043%=      5-min Rain = 0
KOD1 162024Z 01003KT 29/15 A2995 RMK A01 T02880150  RH  043%=      5-min Rain = 0
KOD1 162025Z 02003KT 29/15 A2995 RMK A01 T02870149  RH  043%=      5-min Rain = 0
KOD1 162026Z 00007KT 29/15 A2995 RMK A01 T02870151  RH  043%=      5-min Rain = 0
KOD1 162027Z 34006KT 29/16 A2995 RMK A01 T02880155  RH  044%=      5-min Rain = 0
KOD1 162028Z 34004KT 29/14 A2995 RMK A01 T02880143  RH  041%=      5-min Rain = 0
KOD1 162029Z 33006KT 29/15 A2995 RMK A01 T02870149  RH  043%=      5-min Rain = 0
KOD1 162030Z 33005KT 29/15 A2995 RMK A01 T02860149  RH  043%=      5-min Rain = 0
KOD1 162031Z 33004KT 29/15 A2995 RMK A01 T02860147  RH  043%=      5-min Rain = 0
KOD1 162032Z 01001KT 29/15 A2995 RMK A01 T02860148  RH  043%=      5-min Rain = 0
KOD1 162033Z 03003KT 29/15 A2995 RMK A01 T02860145  RH  042%=      5-min Rain = 0
KOD1 162034Z 01003KT 29/15 A2995 RMK A01 T02870148  RH  043%=      5-min Rain = 0
KOD1 162035Z 00003KT 29/15 A2995 RMK A01 T02880149  RH  043%=      5-min Rain = 0
KOD1 162036Z 32004KT 29/15 A2995 RMK A01 T02890150  RH  043%=      5-min Rain = 0
KOD1 162037Z 35005KT 29/15 A2995 RMK A01 T02910151  RH  043%=      5-min Rain = 0
KOD1 162038Z 36003KT 29/15 A2995 RMK A01 T02910147  RH  041%=      5-min Rain = 0
KOD1 162039Z 31005KT 29/15 A2995 RMK A01 T02900146  RH  041%=      5-min Rain = 0
KOD1 162040Z 33004KT 29/14 A2995 RMK A01 T02900142  RH  040%=      5-min Rain = 0
KOD1 162041Z 35003KT 29/14 A2995 RMK A01 T02890139  RH  040%=      5-min Rain = 0
KOD1 162042Z 32003KT 29/14 A2995 RMK A01 T02870140  RH  041%=      5-min Rain = 0
KOD1 162043Z 25004KT 29/15 A2995 RMK A01 T02870147  RH  042%=      5-min Rain = 0
KOD1 162044Z 27003KT 29/15 A2995 RMK A01 T02890147  RH  042%=      5-min Rain = 0
KOD1 162045Z 32002KT 29/14 A2995 RMK A01 T02900138  RH  039%=      5-min Rain = 0
KOD1 162046Z 00002KT 29/15 A2995 RMK A01 T02910145  RH  041%=      5-min Rain = 0
KOD1 162047Z 34003KT 29/14 A2995 RMK A01 T02920142  RH  040%=      5-min Rain = 0
KOD1 162048Z 35002KT 29/14 A2995 RMK A01 T02920144  RH  040%=      5-min Rain = 0
KOD1 162049Z 05001KT 29/14 A2995 RMK A01 T02930144  RH  040%=      5-min Rain = 0
KOD1 162050Z 07002KT 29/15 A2995 RMK A01 T02930145  RH  040%=      5-min Rain = 0
KOD1 162051Z 03003KT 29/15 A2995 RMK A01 T02940147  RH  041%=      5-min Rain = 0
KOD1 162052Z 00005KT 29/15 A2995 RMK A01 T02940149  RH  041%=      5-min Rain = 0
KOD1 162053Z 36007KT 29/15 A2995 RMK A01 T02940152  RH  042%=      5-min Rain = 0
KOD1 162054Z 01004KT 29/16 A2995 RMK A01 T02940159  RH  044%=      5-min Rain = 0
KOD1 162055Z 02006KT 30/16 A2995 RMK A01 T02960158  RH  043%=      5-min Rain = 0
KOD1 162056Z 04007KT 30/16 A2995 RMK A01 T02970155  RH  042%=      5-min Rain = 0
KOD1 162057Z 04009KT 30/15 A2995 RMK A01 T02960152  RH  042%=      5-min Rain = 0
KOD1 162058Z 04009KT 30/15 A2995 RMK A01 T02950152  RH  042%=      5-min Rain = 0
KOD1 162059Z 04007KT 29/15 A2995 RMK A01 T02930149  RH  041%=      5-min Rain = 0
KOD1 162100Z 05006KT 29/15 A2995 RMK A01 T02910150  RH  042%=      5-min Rain = 0
KOD1 162101Z 05005KT 29/15 A2995 RMK A01 T02900146  RH  042%=      5-min Rain = 0
KOD1 162102Z 07005KT 29/15 A2995 RMK A01 T02890149  RH  042%=      5-min Rain = 0
KOD1 162103Z 05003KT 29/15 A2995 RMK A01 T02880148  RH  043%=      5-min Rain = 0
KOD1 162104Z 02005KT 29/15 A2995 RMK A01 T02890149  RH  043%=      5-min Rain = 0
KOD1 162105Z 07006KT 29/15 A2995 RMK A01 T02890150  RH  043%=      5-min Rain = 0
KOD1 162106Z 06003KT 29/15 A2995 RMK A01 T02880150  RH  043%=      5-min Rain = 0
KOD1 162107Z 06004KT 29/15 A2995 RMK A01 T02890150  RH  043%=      5-min Rain = 0
KOD1 162108Z 05004G9KT 29/15 A2994 RMK A01 T02900153  RH  044%=      5-min Rain = 0
KOD1 162109Z 03007KT 29/15 A2995 RMK A01 T02910151  RH  042%=      5-min Rain = 0
KOD1 162110Z 04006KT 29/15 A2994 RMK A01 T02910151  RH  042%=      5-min Rain = 0
KOD1 162111Z 04008KT 29/15 A2994 RMK A01 T02920152  RH  043%=      5-min Rain = 0
KOD1 162112Z 03007KT 29/15 A2994 RMK A01 T02930152  RH  042%=      5-min Rain = 0
KOD1 162113Z 04005KT 29/15 A2994 RMK A01 T02930149  RH  042%=      5-min Rain = 0
KOD1 162114Z 05007KT 29/15 A2994 RMK A01 T02920147  RH  041%=      5-min Rain = 0
KOD1 162115Z 04006KT 29/14 A2994 RMK A01 T02900142  RH  040%=      5-min Rain = 0
KOD1 162116Z 04007KT 29/15 A2994 RMK A01 T02900147  RH  042%=      5-min Rain = 0
KOD1 162117Z 04007KT 29/15 A2994 RMK A01 T02890145  RH  041%=      5-min Rain = 0
KOD1 162118Z 03006KT 29/15 A2994 RMK A01 T02910151  RH  042%=      5-min Rain = 0
KOD1 162119Z 02006KT 29/15 A2994 RMK A01 T02920145  RH  041%=      5-min Rain = 0
KOD1 162120Z 02005KT 29/15 A2994 RMK A01 T02900145  RH  041%=      5-min Rain = 0
KOD1 162121Z 04004KT 29/15 A2994 RMK A01 T02900150  RH  043%=      5-min Rain = 0
KOD1 162122Z 04004KT 29/15 A2994 RMK A01 T02900152  RH  043%=      5-min Rain = 0
KOD1 162123Z 03007KT 29/15 A2994 RMK A01 T02910152  RH  043%=      5-min Rain = 0
KOD1 162124Z 05008KT 29/15 A2994 RMK A01 T02900153  RH  043%=      5-min Rain = 0
KOD1 162125Z 06008KT 29/15 A2994 RMK A01 T02900154  RH  044%=      5-min Rain = 0
KOD1 162126Z 06006KT 29/16 A2994 RMK A01 T02900156  RH  044%=      5-min Rain = 0
KOD1 162127Z 05008KT 29/15 A2994 RMK A01 T02900152  RH  043%=      5-min Rain = 0
KOD1 162128Z 06006KT 29/15 A2994 RMK A01 T02890153  RH  043%=      5-min Rain = 0
KOD1 162129Z 06006KT 29/16 A2994 RMK A01 T02900156  RH  044%=      5-min Rain = 0
KOD1 162130Z 06005KT 29/15 A2994 RMK A01 T02910152  RH  043%=      5-min Rain = 0
KOD1 162131Z 04006KT 29/15 A2994 RMK A01 T02910152  RH  043%=      5-min Rain = 0
KOD1 162132Z 03006KT 29/16 A2994 RMK A01 T02940155  RH  043%=      5-min Rain = 0
KOD1 162133Z 04004KT 30/15 A2993 RMK A01 T02970150  RH  041%=      5-min Rain = 0
KOD1 162134Z 05006KT 30/15 A2993 RMK A01 T02990152  RH  041%=      5-min Rain = 0
KOD1 162135Z 06006KT 30/15 A2993 RMK A01 T02980147  RH  040%=      5-min Rain = 0
KOD1 162136Z 04007KT 30/15 A2993 RMK A01 T02960147  RH  040%=      5-min Rain = 0
KOD1 162137Z 03006KT 29/15 A2993 RMK A01 T02940147  RH  041%=      5-min Rain = 0
KOD1 162138Z 05005KT 29/15 A2993 RMK A01 T02940152  RH  042%=      5-min Rain = 0
KOD1 162139Z 04007KT 30/15 A2993 RMK A01 T02950154  RH  043%=      5-min Rain = 0
KOD1 162140Z 04006KT 29/15 A2993 RMK A01 T02940153  RH  042%=      5-min Rain = 0
KOD1 162141Z 03006KT 29/15 A2993 RMK A01 T02920153  RH  043%=      5-min Rain = 0
KOD1 162142Z 04004KT 29/15 A2993 RMK A01 T02910152  RH  043%=      5-min Rain = 0
KOD1 162143Z 02005KT 29/15 A2993 RMK A01 T02910153  RH  043%=      5-min Rain = 0
KOD1 162144Z 03006KT 29/15 A2993 RMK A01 T02910149  RH  042%=      5-min Rain = 0
KOD1 162145Z 03007KT 29/15 A2993 RMK A01 T02900151  RH  043%=      5-min Rain = 0
KOD1 162146Z 03006KT 29/15 A2993 RMK A01 T02910152  RH  043%=      5-min Rain = 0
KOD1 162147Z 03005KT 29/15 A2993 RMK A01 T02920151  RH  042%=      5-min Rain = 0
KOD1 162148Z 03008KT 29/15 A2993 RMK A01 T02930148  RH  041%=      5-min Rain = 0
KOD1 162149Z 06006KT 29/15 A2993 RMK A01 T02920152  RH  042%=      5-min Rain = 0
KOD1 162150Z 07006KT 29/16 A2993 RMK A01 T02920155  RH  043%=      5-min Rain = 0
KOD1 162151Z 05006KT 29/15 A2993 RMK A01 T02930151  RH  042%=      5-min Rain = 0
KOD1 162152Z 05006KT 29/15 A2993 RMK A01 T02930147  RH  041%=      5-min Rain = 0
KOD1 162153Z 06005KT 29/15 A2993 RMK A01 T02920145  RH  041%=      5-min Rain = 0
KOD1 162154Z 07003KT 29/15 A2993 RMK A01 T02910145  RH  041%=      5-min Rain = 0
KOD1 162155Z 04007KT 29/16 A2993 RMK A01 T02910155  RH  044%=      5-min Rain = 0
KOD1 162156Z 04006KT 29/16 A2993 RMK A01 T02930158  RH  044%=      5-min Rain = 0
KOD1 162157Z 03006KT 30/15 A2993 RMK A01 T02950152  RH  042%=      5-min Rain = 0
KOD1 162158Z 05006KT 29/15 A2993 RMK A01 T02940154  RH  042%=      5-min Rain = 0
KOD1 162159Z 06006KT 29/15 A2993 RMK A01 T02940154  RH  042%=      5-min Rain = 0
KOD1 162200Z 05006KT 29/15 A2993 RMK A01 T02930152  RH  042%=      5-min Rain = 0
KOD1 162201Z 05004KT 29/15 A2993 RMK A01 T02930153  RH  043%=      5-min Rain = 0
KOD1 162202Z 06003KT 29/16 A2993 RMK A01 T02930155  RH  043%=      5-min Rain = 0
KOD1 162203Z 06005KT 29/16 A2993 RMK A01 T02930155  RH  043%=      5-min Rain = 0
KOD1 162204Z 05005KT 29/16 A2993 RMK A01 T02930158  RH  044%=      5-min Rain = 0
KOD1 162205Z 07004KT 29/16 A2993 RMK A01 T02940158  RH  044%=      5-min Rain = 0
KOD1 162206Z 08006KT 29/16 A2993 RMK A01 T02940162  RH  045%=      5-min Rain = 0
KOD1 162207Z 08006KT 29/16 A2993 RMK A01 T02940161  RH  045%=      5-min Rain = 0
KOD1 162208Z 08006KT 29/16 A2993 RMK A01 T02920156  RH  044%=      5-min Rain = 0
KOD1 162209Z 08007KT 29/16 A2993 RMK A01 T02920159  RH  045%=      5-min Rain = 0
KOD1 162210Z 07006KT 29/16 A2993 RMK A01 T02920160  RH  045%=      5-min Rain = 0
KOD1 162211Z 07005KT 29/15 A2993 RMK A01 T02920154  RH  043%=      5-min Rain = 0
KOD1 162212Z 07006KT 29/16 A2993 RMK A01 T02910157  RH  044%=      5-min Rain = 0
KOD1 162213Z 07005KT 29/16 A2993 RMK A01 T02910159  RH  045%=      5-min Rain = 0
KOD1 162214Z 06004KT 29/16 A2993 RMK A01 T02920156  RH  044%=      5-min Rain = 0
KOD1 162215Z 07007KT 29/16 A2993 RMK A01 T02930159  RH  044%=      5-min Rain = 0
KOD1 162216Z 07008KT 29/16 A2993 RMK A01 T02930155  RH  043%=      5-min Rain = 0
KOD1 162217Z 07007KT 29/15 A2993 RMK A01 T02930154  RH  043%=      5-min Rain = 0
KOD1 162218Z 09006KT 29/16 A2993 RMK A01 T02930157  RH  044%=      5-min Rain = 0
KOD1 162219Z 08005KT 29/16 A2993 RMK A01 T02930159  RH  044%=      5-min Rain = 0
KOD1 162220Z 06005KT 29/15 A2993 RMK A01 T02930152  RH  042%=      5-min Rain = 0
KOD1 162221Z 06006KT 29/15 A2993 RMK A01 T02930153  RH  043%=      5-min Rain = 0
KOD1 162222Z 07006KT 29/16 A2993 RMK A01 T02930156  RH  043%=      5-min Rain = 0
KOD1 162223Z 06006KT 29/16 A2993 RMK A01 T02940156  RH  043%=      5-min Rain = 0
KOD1 162224Z 06007KT 29/15 A2993 RMK A01 T02940152  RH  042%=      5-min Rain = 0
KOD1 162225Z 07007KT 29/15 A2993 RMK A01 T02930146  RH  041%=      5-min Rain = 0
KOD1 162226Z 06007KT 29/15 A2993 RMK A01 T02920147  RH  041%=      5-min Rain = 0
KOD1 162227Z 06008KT 29/15 A2993 RMK A01 T02920146  RH  041%=      5-min Rain = 0
KOD1 162228Z 07006KT 29/15 A2993 RMK A01 T02920149  RH  042%=      5-min Rain = 0
KOD1 162229Z 07007KT 29/15 A2993 RMK A01 T02910148  RH  042%=      5-min Rain = 0
KOD1 162230Z 07006KT 29/15 A2993 RMK A01 T02900146  RH  041%=      5-min Rain = 0
KOD1 162231Z 06006KT 29/15 A2993 RMK A01 T02900147  RH  042%=      5-min Rain = 0
KOD1 162232Z 05007KT 29/15 A2993 RMK A01 T02900145  RH  041%=      5-min Rain = 0
KOD1 162233Z 05007KT 29/15 A2993 RMK A01 T02910148  RH  042%=      5-min Rain = 0
KOD1 162234Z 07006KT 29/15 A2993 RMK A01 T02910150  RH  042%=      5-min Rain = 0
KOD1 162235Z 07005KT 29/15 A2993 RMK A01 T02910145  RH  041%=      5-min Rain = 0
KOD1 162236Z 07004KT 29/15 A2993 RMK A01 T02900145  RH  041%=      5-min Rain = 0
KOD1 162237Z 06006KT 29/15 A2993 RMK A01 T02890148  RH  042%=      5-min Rain = 0
KOD1 162238Z 06007KT 29/15 A2993 RMK A01 T02880153  RH  044%=      5-min Rain = 0
KOD1 162239Z 06007KT 29/15 A2993 RMK A01 T02880152  RH  044%=      5-min Rain = 0
KOD1 162240Z 07007KT 29/15 A2993 RMK A01 T02870154  RH  044%=      5-min Rain = 0
KOD1 162241Z 06007KT 29/15 A2993 RMK A01 T02870154  RH  044%=      5-min Rain = 0
KOD1 162242Z 05007KT 29/15 A2993 RMK A01 T02870154  RH  044%=      5-min Rain = 0
KOD1 162243Z 05007KT 29/16 A2993 RMK A01 T02880156  RH  045%=      5-min Rain = 0
KOD1 162244Z 07005KT 29/16 A2993 RMK A01 T02890161  RH  046%=      5-min Rain = 0
KOD1 162245Z 07005KT 29/16 A2993 RMK A01 T02890159  RH  045%=      5-min Rain = 0
KOD1 162246Z 07004KT 29/16 A2993 RMK A01 T02890162  RH  046%=      5-min Rain = 0
KOD1 162247Z 07004KT 29/16 A2993 RMK A01 T02890164  RH  047%=      5-min Rain = 0
KOD1 162248Z 08004KT 29/16 A2993 RMK A01 T02900164  RH  047%=      5-min Rain = 0
KOD1 162249Z 08005KT 29/16 A2993 RMK A01 T02890161  RH  046%=      5-min Rain = 0
KOD1 162250Z 08006KT 29/16 A2993 RMK A01 T02880160  RH  046%=      5-min Rain = 0
KOD1 162251Z 09006KT 29/16 A2993 RMK A01 T02880159  RH  046%=      5-min Rain = 0
KOD1 162252Z 09005KT 29/16 A2993 RMK A01 T02870159  RH  046%=      5-min Rain = 0
KOD1 162253Z 09004KT 29/16 A2993 RMK A01 T02880163  RH  047%=      5-min Rain = 0
KOD1 162254Z 10005KT 29/16 A2993 RMK A01 T02890161  RH  046%=      5-min Rain = 0
KOD1 162255Z 09005KT 29/16 A2993 RMK A01 T02880159  RH  046%=      5-min Rain = 0
KOD1 162256Z 11004KT 29/16 A2993 RMK A01 T02870161  RH  046%=      5-min Rain = 0
KOD1 162257Z 10004KT 29/16 A2993 RMK A01 T02870159  RH  046%=      5-min Rain = 0
KOD1 162258Z 10005KT 29/16 A2993 RMK A01 T02870163  RH  047%=      5-min Rain = 0
KOD1 162259Z 07004KT 29/16 A2993 RMK A01 T02880163  RH  047%=      5-min Rain = 0
KOD1 162300Z 06005KT 29/16 A2993 RMK A01 T02890160  RH  046%=      5-min Rain = 0
KOD1 162301Z 08004KT 29/16 A2993 RMK A01 T02890157  RH  045%=      5-min Rain = 0
KOD1 162302Z 07005KT 29/16 A2993 RMK A01 T02890159  RH  045%=      5-min Rain = 0
KOD1 162303Z 07004KT 29/16 A2993 RMK A01 T02890161  RH  046%=      5-min Rain = 0
KOD1 162304Z 07005KT 29/16 A2993 RMK A01 T02880156  RH  045%=      5-min Rain = 0
KOD1 162305Z 05003KT 29/16 A2993 RMK A01 T02880157  RH  045%=      5-min Rain = 0
KOD1 162306Z 05004KT 29/16 A2993 RMK A01 T02880157  RH  045%=      5-min Rain = 0
KOD1 162307Z 06003KT 29/16 A2993 RMK A01 T02880159  RH  046%=      5-min Rain = 0
KOD1 162308Z 05004KT 29/16 A2993 RMK A01 T02890159  RH  045%=      5-min Rain = 0
KOD1 162309Z 05004KT 29/16 A2993 RMK A01 T02890158  RH  045%=      5-min Rain = 0
KOD1 162310Z 07003KT 29/16 A2992 RMK A01 T02890158  RH  045%=      5-min Rain = 0
KOD1 162311Z 10002KT 29/16 A2992 RMK A01 T02890159  RH  045%=      5-min Rain = 0
KOD1 162312Z 09002KT 29/16 A2992 RMK A01 T02900160  RH  045%=      5-min Rain = 0
KOD1 162313Z 09001KT 29/16 A2992 RMK A01 T02900163  RH  046%=      5-min Rain = 0
KOD1 162314Z 02002KT 29/16 A2992 RMK A01 T02910159  RH  045%=      5-min Rain = 0
KOD1 162315Z 02003KT 29/16 A2992 RMK A01 T02920158  RH  044%=      5-min Rain = 0
KOD1 162316Z 04004KT 29/16 A2992 RMK A01 T02920159  RH  044%=      5-min Rain = 0
KOD1 162317Z 04003KT 29/16 A2992 RMK A01 T02930160  RH  044%=      5-min Rain = 0
KOD1 162318Z 06003KT 29/16 A2992 RMK A01 T02930157  RH  044%=      5-min Rain = 0
KOD1 162319Z 10003KT 29/15 A2992 RMK A01 T02920154  RH  043%=      5-min Rain = 0
KOD1 162320Z 11002KT 29/16 A2992 RMK A01 T02910157  RH  044%=      5-min Rain = 0
KOD1 162321Z 11003KT 29/16 A2992 RMK A01 T02910158  RH  044%=      5-min Rain = 0
KOD1 162322Z 09003KT 29/16 A2992 RMK A01 T02920161  RH  045%=      5-min Rain = 0
KOD1 162323Z 08003KT 29/16 A2992 RMK A01 T02920155  RH  043%=      5-min Rain = 0
KOD1 162324Z 09004KT 29/16 A2992 RMK A01 T02920159  RH  045%=      5-min Rain = 0
KOD1 162325Z 08004KT 29/16 A2992 RMK A01 T02920156  RH  044%=      5-min Rain = 0
KOD1 162326Z 06003KT 29/16 A2992 RMK A01 T02920159  RH  045%=      5-min Rain = 0
KOD1 162327Z 08004KT 29/16 A2992 RMK A01 T02930159  RH  044%=      5-min Rain = 0
KOD1 162328Z 08004KT 29/16 A2992 RMK A01 T02920155  RH  043%=      5-min Rain = 0
KOD1 162329Z 09004KT 29/16 A2992 RMK A01 T02910160  RH  045%=      5-min Rain = 0
KOD1 162330Z 09004KT 29/16 A2992 RMK A01 T02910162  RH  046%=      5-min Rain = 0
KOD1 162331Z 10005KT 29/16 A2992 RMK A01 T02910163  RH  046%=      5-min Rain = 0
KOD1 162332Z 12005KT 29/16 A2992 RMK A01 T02900158  RH  045%=      5-min Rain = 0
KOD1 162333Z 12004KT 29/16 A2992 RMK A01 T02900161  RH  046%=      5-min Rain = 0
KOD1 162334Z 11006KT 29/17 A2992 RMK A01 T02900166  RH  047%=      5-min Rain = 0
KOD1 162335Z 11005KT 29/17 A2992 RMK A01 T02900165  RH  047%=      5-min Rain = 0
KOD1 162336Z 12006KT 29/16 A2992 RMK A01 T02900164  RH  047%=      5-min Rain = 0
KOD1 162337Z 12005KT 29/17 A2992 RMK A01 T02890166  RH  047%=      5-min Rain = 0
KOD1 162338Z 13006KT 29/16 A2992 RMK A01 T02880163  RH  047%=      5-min Rain = 0
KOD1 162339Z 13007KT 29/17 A2992 RMK A01 T02880165  RH  047%=      5-min Rain = 0
KOD1 162340Z 14005KT 29/16 A2992 RMK A01 T02880160  RH  046%=      5-min Rain = 0
KOD1 162341Z 11004KT 29/16 A2991 RMK A01 T02880160  RH  046%=      5-min Rain = 0
KOD1 162342Z 09004KT 29/16 A2991 RMK A01 T02880164  RH  047%=      5-min Rain = 0
KOD1 162343Z 10004KT 29/16 A2991 RMK A01 T02880164  RH  047%=      5-min Rain = 0
KOD1 162344Z 13004KT 29/16 A2991 RMK A01 T02880162  RH  046%=      5-min Rain = 0
KOD1 162345Z 13004KT 29/16 A2991 RMK A01 T02880160  RH  046%=      5-min Rain = 0
KOD1 162346Z 13005KT 29/16 A2991 RMK A01 T02890163  RH  047%=      5-min Rain = 0
KOD1 162347Z 13005KT 29/17 A2991 RMK A01 T02890166  RH  048%=      5-min Rain = 0
KOD1 162348Z 11006KT 29/17 A2991 RMK A01 T02890167  RH  048%=      5-min Rain = 0
KOD1 162349Z 10005KT 29/17 A2991 RMK A01 T02890169  RH  048%=      5-min Rain = 0
KOD1 162350Z 11005KT 29/16 A2991 RMK A01 T02890163  RH  046%=      5-min Rain = 0
KOD1 162351Z 08004KT 29/17 A2991 RMK A01 T02900165  RH  047%=      5-min Rain = 0
KOD1 162352Z 07004KT 29/16 A2991 RMK A01 T02900160  RH  045%=      5-min Rain = 0
KOD1 162353Z 07003KT 29/16 A2991 RMK A01 T02900158  RH  045%=      5-min Rain = 0
KOD1 162354Z 08003KT 29/16 A2991 RMK A01 T02890158  RH  045%=      5-min Rain = 0
KOD1 162355Z 08002KT 29/16 A2991 RMK A01 T02900161  RH  046%=      5-min Rain = 0
KOD1 162356Z 11002KT 29/16 A2991 RMK A01 T02900160  RH  045%=      5-min Rain = 0
KOD1 162357Z 12001KT 29/16 A2991 RMK A01 T02910160  RH  045%=      5-min Rain = 0
KOD1 162358Z 12001KT 29/16 A2991 RMK A01 T02920162  RH  045%=      5-min Rain = 0
KOD1 162359Z 11003KT 29/16 A2991 RMK A01 T02920160  RH  045%=      5-min Rain = 0
KOD1 170000Z 10003KT 29/16 A2991 RMK A01 T02920160  RH  045%=      5-min Rain = 0
KOD1 170001Z 14003KT 29/17 A2991 RMK A01 T02920165  RH  046%=      5-min Rain = 0
KOD1 170002Z 15004KT 29/17 A2991 RMK A01 T02930169  RH  047%=      5-min Rain = 0
KOD1 170003Z 15005KT 29/17 A2991 RMK A01 T02920165  RH  046%=      5-min Rain = 0
KOD1 170004Z 15006KT 29/17 A2991 RMK A01 T02920167  RH  047%=      5-min Rain = 0
KOD1 170005Z 16005KT 29/17 A2991 RMK A01 T02910165  RH  046%=      5-min Rain = 0
KOD1 170006Z 17004KT 29/17 A2991 RMK A01 T02910166  RH  047%=      5-min Rain = 0
KOD1 170007Z 17003KT 29/17 A2991 RMK A01 T02910166  RH  047%=      5-min Rain = 0
KOD1 170008Z 17004KT 29/17 A2991 RMK A01 T02910168  RH  047%=      5-min Rain = 0
KOD1 170009Z 15004KT 29/17 A2991 RMK A01 T02910170  RH  048%=      5-min Rain = 0
KOD1 170010Z 15005KT 29/17 A2991 RMK A01 T02910169  RH  048%=      5-min Rain = 0
KOD1 170011Z 12004KT 29/17 A2991 RMK A01 T02910167  RH  047%=      5-min Rain = 0
KOD1 170012Z 12004KT 29/17 A2991 RMK A01 T02900170  RH  048%=      5-min Rain = 0
KOD1 170013Z 12005KT 29/17 A2991 RMK A01 T02900165  RH  047%=      5-min Rain = 0
KOD1 170014Z 12005KT 29/17 A2991 RMK A01 T02890165  RH  047%=      5-min Rain = 0
KOD1 170015Z 11005KT 29/17 A2991 RMK A01 T02890166  RH  047%=      5-min Rain = 0
KOD1 170016Z 11003KT 29/17 A2991 RMK A01 T02890166  RH  047%=      5-min Rain = 0
KOD1 170017Z 12003KT 29/17 A2991 RMK A01 T02900167  RH  048%=      5-min Rain = 0
KOD1 170018Z 12003KT 29/17 A2991 RMK A01 T02900171  RH  049%=      5-min Rain = 0
KOD1 170019Z 12002KT 29/17 A2991 RMK A01 T02900170  RH  048%=      5-min Rain = 0
KOD1 170020Z 14003KT 29/17 A2991 RMK A01 T02900167  RH  047%=      5-min Rain = 0
KOD1 170021Z 12003KT 29/16 A2991 RMK A01 T02900164  RH  046%=      5-min Rain = 0
KOD1 170022Z 13004KT 29/16 A2991 RMK A01 T02900164  RH  047%=      5-min Rain = 0
KOD1 170023Z 12003KT 29/16 A2991 RMK A01 T02910164  RH  046%=      5-min Rain = 0
KOD1 170024Z 11003KT 29/17 A2991 RMK A01 T02900165  RH  047%=      5-min Rain = 0
KOD1 170025Z 11003KT 29/17 A2991 RMK A01 T02900166  RH  047%=      5-min Rain = 0
KOD1 170026Z 12004KT 29/17 A2991 RMK A01 T02900169  RH  048%=      5-min Rain = 0
KOD1 170027Z 11005KT 29/17 A2991 RMK A01 T02900171  RH  049%=      5-min Rain = 0
KOD1 170028Z 07004KT 29/15 A2991 RMK A01 T02880148  RH  042%=      5-min Rain = 0
KOD1 170029Z 07004KT 29/14 A2991 RMK A01 T02880140  RH  040%=      5-min Rain = 0
KOD1 170030Z 08003KT 29/14 A2991 RMK A01 T02890139  RH  040%=      5-min Rain = 0
KOD1 170031Z 08002KT 29/15 A2991 RMK A01 T02890145  RH  041%=      5-min Rain = 0
KOD1 170032Z 08002KT 29/15 A2991 RMK A01 T02890152  RH  043%=      5-min Rain = 0
KOD1 170033Z 08002KT 29/15 A2991 RMK A01 T02890152  RH  043%=      5-min Rain = 0
KOD1 170034Z 08002KT 29/15 A2991 RMK A01 T02890145  RH  041%=      5-min Rain = 0
KOD1 170035Z 08003KT 29/15 A2991 RMK A01 T02890145  RH  041%=      5-min Rain = 0
KOD1 170036Z 08002KT 29/14 A2991 RMK A01 T02890137  RH  039%=      5-min Rain = 0
KOD1 170037Z 07002KT 29/14 A2991 RMK A01 T02890138  RH  040%=      5-min Rain = 0
KOD1 170038Z 06002KT 29/14 A2991 RMK A01 T02890139  RH  040%=      5-min Rain = 0
KOD1 170039Z 06003KT 29/14 A2991 RMK A01 T02890136  RH  039%=      5-min Rain = 0
KOD1 170040Z 06003KT 29/14 A2991 RMK A01 T02890141  RH  040%=      5-min Rain = 0
KOD1 170041Z 07002KT 29/14 A2991 RMK A01 T02890143  RH  041%=      5-min Rain = 0
KOD1 170042Z 07002KT 29/14 A2991 RMK A01 T02890143  RH  041%=      5-min Rain = 0
KOD1 170043Z 06003KT 29/14 A2991 RMK A01 T02890135  RH  039%=      5-min Rain = 0
KOD1 170044Z 06003KT 29/13 A2991 RMK A01 T02890133  RH  038%=      5-min Rain = 0
KOD1 170045Z 05003KT 29/13 A2991 RMK A01 T02890134  RH  039%=      5-min Rain = 0
KOD1 170046Z 06003KT 29/14 A2991 RMK A01 T02890136  RH  039%=      5-min Rain = 0
KOD1 170047Z 06003KT 29/14 A2991 RMK A01 T02880136  RH  039%=      5-min Rain = 0
KOD1 170048Z 06002KT 29/14 A2991 RMK A01 T02880138  RH  040%=      5-min Rain = 0
KOD1 170049Z 06002KT 29/14 A2991 RMK A01 T02880139  RH  040%=      5-min Rain = 0
KOD1 170050Z 06002KT 29/14 A2991 RMK A01 T02870137  RH  040%=      5-min Rain = 0
KOD1 170051Z 07002KT 29/14 A2991 RMK A01 T02870139  RH  040%=      5-min Rain = 0
KOD1 170052Z 09002KT 29/15 A2991 RMK A01 T02870149  RH  043%=      5-min Rain = 0
KOD1 170053Z 09002KT 29/16 A2991 RMK A01 T02860156  RH  045%=      5-min Rain = 0
KOD1 170054Z 09002KT 29/16 A2991 RMK A01 T02850158  RH  046%=      5-min Rain = 0
KOD1 170055Z 09002KT 29/16 A2991 RMK A01 T02850158  RH  046%=      5-min Rain = 0
KOD1 170056Z 09002KT 28/16 A2991 RMK A01 T02840158  RH  046%=      5-min Rain = 0
KOD1 170057Z 09003KT 28/16 A2991 RMK A01 T02840161  RH  047%=      5-min Rain = 0
KOD1 170058Z 09003KT 28/16 A2991 RMK A01 T02830163  RH  048%=      5-min Rain = 0
KOD1 170059Z 09003KT 28/16 A2991 RMK A01 T02820162  RH  048%=      5-min Rain = 0
KOD1 170100Z 09003KT 28/16 A2991 RMK A01 T02820164  RH  049%=      5-min Rain = 0
KOD1 170101Z 09003KT 28/16 A2991 RMK A01 T02810163  RH  049%=      5-min Rain = 0
KOD1 170102Z 09003KT 28/16 A2991 RMK A01 T02800164  RH  049%=      5-min Rain = 0
KOD1 170103Z 09003KT 28/16 A2991 RMK A01 T02790162  RH  049%=      5-min Rain = 0
KOD1 170104Z 09003KT 28/16 A2991 RMK A01 T02790164  RH  050%=      5-min Rain = 0
KOD1 170105Z 09003KT 28/17 A2991 RMK A01 T02780165  RH  050%=      5-min Rain = 0
KOD1 170106Z 09003KT 28/17 A2991 RMK A01 T02770168  RH  051%=      5-min Rain = 0
KOD1 170107Z 09003KT 28/17 A2991 RMK A01 T02760171  RH  053%=      5-min Rain = 0
KOD1 170108Z 09003KT 28/17 A2991 RMK A01 T02750172  RH  053%=      5-min Rain = 0
KOD1 170109Z 10003KT 27/17 A2991 RMK A01 T02740172  RH  054%=      5-min Rain = 0
KOD1 170110Z 10003KT 27/17 A2991 RMK A01 T02730172  RH  054%=      5-min Rain = 0
KOD1 170111Z 09003KT 27/17 A2991 RMK A01 T02720169  RH  053%=      5-min Rain = 0
KOD1 170112Z 09003KT 27/17 A2991 RMK A01 T02710166  RH  053%=      5-min Rain = 0
KOD1 170113Z 10003KT 27/17 A2992 RMK A01 T02710165  RH  052%=      5-min Rain = 0
KOD1 170114Z 10003KT 27/16 A2992 RMK A01 T02700164  RH  052%=      5-min Rain = 0
KOD1 170115Z 10004KT 27/17 A2992 RMK A01 T02700166  RH  053%=      5-min Rain = 0
KOD1 170116Z 11004KT 27/17 A2992 RMK A01 T02690170  RH  054%=      5-min Rain = 0
KOD1 170117Z 11004KT 27/17 A2992 RMK A01 T02680172  RH  055%=      5-min Rain = 0
KOD1 170118Z 11003KT 27/17 A2992 RMK A01 T02670170  RH  055%=      5-min Rain = 0
KOD1 170119Z 11003KT 27/17 A2992 RMK A01 T02660167  RH  055%=      5-min Rain = 0
KOD1 170120Z 11003KT 27/17 A2992 RMK A01 T02650166  RH  054%=      5-min Rain = 0
KOD1 170121Z 11003KT 26/17 A2992 RMK A01 T02640166  RH  055%=      5-min Rain = 0
KOD1 170122Z 12003KT 26/17 A2992 RMK A01 T02630166  RH  055%=      5-min Rain = 0
KOD1 170123Z 11003KT 26/16 A2992 RMK A01 T02620164  RH  055%=      5-min Rain = 0
KOD1 170124Z 11003KT 26/16 A2992 RMK A01 T02610164  RH  055%=      5-min Rain = 0
KOD1 170125Z 11004KT 26/16 A2992 RMK A01 T02610164  RH  055%=      5-min Rain = 0
KOD1 170126Z 10004KT 26/17 A2992 RMK A01 T02600167  RH  056%=      5-min Rain = 0
KOD1 170127Z 11004KT 26/17 A2992 RMK A01 T02600168  RH  057%=      5-min Rain = 0
KOD1 170128Z 11004KT 26/17 A2992 RMK A01 T02590168  RH  057%=      5-min Rain = 0
KOD1 170129Z 11004KT 26/17 A2992 RMK A01 T02580169  RH  058%=      5-min Rain = 0
KOD1 170130Z 11004KT 26/17 A2992 RMK A01 T02570167  RH  058%=      5-min Rain = 0
KOD1 170131Z 11004KT 26/17 A2992 RMK A01 T02560167  RH  058%=      5-min Rain = 0
KOD1 170132Z 12005KT 26/17 A2992 RMK A01 T02550166  RH  058%=      5-min Rain = 0
KOD1 170133Z 12005KT 25/17 A2992 RMK A01 T02540166  RH  058%=      5-min Rain = 0
KOD1 170134Z 12005KT 25/17 A2992 RMK A01 T02530167  RH  059%=      5-min Rain = 0
KOD1 170135Z 12005KT 25/17 A2992 RMK A01 T02520167  RH  059%=      5-min Rain = 0
KOD1 170136Z 12005KT 25/17 A2992 RMK A01 T02510167  RH  060%=      5-min Rain = 0
KOD1 170137Z 12006KT 25/17 A2992 RMK A01 T02500168  RH  060%=      5-min Rain = 0
KOD1 170138Z 12006KT 25/17 A2992 RMK A01 T02490169  RH  061%=      5-min Rain = 0
KOD1 170139Z 12006KT 25/17 A2992 RMK A01 T02470170  RH  062%=      5-min Rain = 0
KOD1 170140Z 12006KT 25/17 A2992 RMK A01 T02460168  RH  062%=      5-min Rain = 0
KOD1 170141Z 12006KT 25/17 A2992 RMK A01 T02450168  RH  062%=      5-min Rain = 0
KOD1 170142Z 12006KT 24/17 A2992 RMK A01 T02440168  RH  062%=      5-min Rain = 0
KOD1 170143Z 12006KT 24/17 A2992 RMK A01 T02430167  RH  062%=      5-min Rain = 0
KOD1 170144Z 12006KT 24/17 A2992 RMK A01 T02420167  RH  063%=      5-min Rain = 0
KOD1 170145Z 12006KT 24/17 A2992 RMK A01 T02420166  RH  063%=      5-min Rain = 0
KOD1 170146Z 12006KT 24/17 A2992 RMK A01 T02410166  RH  063%=      5-min Rain = 0
KOD1 170147Z 12006KT 24/17 A2992 RMK A01 T02410165  RH  063%=      5-min Rain = 0
KOD1 170148Z 12006KT 24/17 A2992 RMK A01 T02410165  RH  062%=      5-min Rain = 0
KOD1 170149Z 12006KT 24/16 A2992 RMK A01 T02410164  RH  062%=      5-min Rain = 0
KOD1 170150Z 12006KT 24/16 A2992 RMK A01 T02410164  RH  062%=      5-min Rain = 0
KOD1 170151Z 12006KT 24/16 A2992 RMK A01 T02410164  RH  062%=      5-min Rain = 0
KOD1 170152Z 12006KT 24/16 A2992 RMK A01 T02410164  RH  062%=      5-min Rain = 0
KOD1 170153Z 12006KT 24/16 A2992 RMK A01 T02400164  RH  062%=      5-min Rain = 0
KOD1 170154Z 12006KT 24/16 A2992 RMK A01 T02400163  RH  062%=      5-min Rain = 0
KOD1 170155Z 12006KT 24/16 A2992 RMK A01 T02400163  RH  062%=      5-min Rain = 0
KOD1 170156Z 12006KT 24/16 A2992 RMK A01 T02400163  RH  062%=      5-min Rain = 0
KOD1 170157Z 12006KT 24/16 A2992 RMK A01 T02400162  RH  062%=      5-min Rain = 0
KOD1 170158Z 12006KT 24/16 A2992 RMK A01 T02390162  RH  062%=      5-min Rain = 0
KOD1 170159Z 12006KT 24/16 A2992 RMK A01 T02390162  RH  062%=      5-min Rain = 0
KOD1 170200Z 12006KT 24/16 A2992 RMK A01 T02390161  RH  062%=      5-min Rain = 0
KOD1 170201Z 12005KT 24/16 A2992 RMK A01 T02390162  RH  062%=      5-min Rain = 0
KOD1 170202Z 12005KT 24/16 A2992 RMK A01 T02380162  RH  062%=      5-min Rain = 0
KOD1 170203Z 12006KT 24/16 A2992 RMK A01 T02380161  RH  062%=      5-min Rain = 0
KOD1 170204Z 12006KT 24/16 A2992 RMK A01 T02380161  RH  062%=      5-min Rain = 0
KOD1 170205Z 12006KT 24/16 A2992 RMK A01 T02380161  RH  062%=      5-min Rain = 0
KOD1 170206Z 12006KT 24/16 A2992 RMK A01 T02370160  RH  062%=      5-min Rain = 0
KOD1 170207Z 13007KT 24/16 A2992 RMK A01 T02370160  RH  062%=      5-min Rain = 0
KOD1 170208Z 13007KT 24/16 A2992 RMK A01 T02380160  RH  062%=      5-min Rain = 0
KOD1 170209Z 13008KT 24/16 A2992 RMK A01 T02380159  RH  061%=      5-min Rain = 0
KOD1 170210Z 13008KT 24/16 A2992 RMK A01 T02390158  RH  060%=      5-min Rain = 0
KOD1 170211Z 13008KT 24/16 A2992 RMK A01 T02400157  RH  060%=      5-min Rain = 0
KOD1 170212Z 13008KT 24/16 A2992 RMK A01 T02410156  RH  059%=      5-min Rain = 0
KOD1 170213Z 13008KT 24/16 A2992 RMK A01 T02410156  RH  059%=      5-min Rain = 0
KOD1 170214Z 13008KT 24/16 A2992 RMK A01 T02420157  RH  059%=      5-min Rain = 0
KOD1 170215Z 14007KT 24/16 A2992 RMK A01 T02420158  RH  059%=      5-min Rain = 0
KOD1 170216Z 14006KT 24/16 A2992 RMK A01 T02420159  RH  060%=      5-min Rain = 0
KOD1 170217Z 14007KT 24/16 A2992 RMK A01 T02420160  RH  060%=      5-min Rain = 0
KOD1 170218Z 13006KT 24/16 A2992 RMK A01 T02410161  RH  061%=      5-min Rain = 0
KOD1 170219Z 13006KT 24/16 A2992 RMK A01 T02410161  RH  061%=      5-min Rain = 0
KOD1 170220Z 13006KT 24/16 A2992 RMK A01 T02400161  RH  061%=      5-min Rain = 0
KOD1 170221Z 13006KT 24/16 A2992 RMK A01 T02400162  RH  062%=      5-min Rain = 0
KOD1 170222Z 13006KT 24/16 A2992 RMK A01 T02400163  RH  062%=      5-min Rain = 0
KOD1 170223Z 13007KT 24/16 A2992 RMK A01 T02390163  RH  062%=      5-min Rain = 0
KOD1 170224Z 13006KT 24/16 A2992 RMK A01 T02390164  RH  063%=      5-min Rain = 0
KOD1 170225Z 13006KT 24/16 A2992 RMK A01 T02390164  RH  063%=      5-min Rain = 0
KOD1 170226Z 13007KT 24/16 A2992 RMK A01 T02380164  RH  063%=      5-min Rain = 0
KOD1 170227Z 13007KT 24/16 A2992 RMK A01 T02380164  RH  063%=      5-min Rain = 0
KOD1 170228Z 13007KT 24/16 A2992 RMK A01 T02390164  RH  063%=      5-min Rain = 0
KOD1 170229Z 13007KT 24/17 A2992 RMK A01 T02390165  RH  063%=      5-min Rain = 0
KOD1 170230Z 13007KT 24/17 A2992 RMK A01 T02390166  RH  063%=      5-min Rain = 0
KOD1 170231Z 13007KT 24/17 A2992 RMK A01 T02390167  RH  064%=      5-min Rain = 0
KOD1 170232Z 13007KT 24/17 A2992 RMK A01 T02390167  RH  064%=      5-min Rain = 0
KOD1 170233Z 13007KT 24/17 A2992 RMK A01 T02390168  RH  064%=      5-min Rain = 0
KOD1 170234Z 14008KT 24/17 A2992 RMK A01 T02390168  RH  064%=      5-min Rain = 0
KOD1 170235Z 14007KT 24/17 A2992 RMK A01 T02400169  RH  064%=      5-min Rain = 0
KOD1 170236Z 13007KT 24/17 A2993 RMK A01 T02400169  RH  064%=      5-min Rain = 0
KOD1 170237Z 13007KT 24/17 A2993 RMK A01 T02400169  RH  065%=      5-min Rain = 0
KOD1 170238Z 13008KT 24/17 A2993 RMK A01 T02400169  RH  065%=      5-min Rain = 0
KOD1 170239Z 13008KT 24/17 A2993 RMK A01 T02400170  RH  065%=      5-min Rain = 0
KOD1 170240Z 13008KT 24/17 A2993 RMK A01 T02400170  RH  065%=      5-min Rain = 0
KOD1 170241Z 13008KT 24/17 A2992 RMK A01 T02400169  RH  064%=      5-min Rain = 0
KOD1 170242Z 13007KT 24/17 A2992 RMK A01 T02400170  RH  065%=      5-min Rain = 0
KOD1 170243Z 14007KT 24/17 A2992 RMK A01 T02390170  RH  065%=      5-min Rain = 0
KOD1 170244Z 14007KT 24/17 A2992 RMK A01 T02390170  RH  065%=      5-min Rain = 0
KOD1 170245Z 14008KT 24/17 A2992 RMK A01 T02390170  RH  065%=      5-min Rain = 0
KOD1 170246Z 14008KT 24/17 A2992 RMK A01 T02380170  RH  066%=      5-min Rain = 0
KOD1 170247Z 14009KT 24/17 A2992 RMK A01 T02380170  RH  066%=      5-min Rain = 0
KOD1 170248Z 14008KT 24/17 A2992 RMK A01 T02380170  RH  066%=      5-min Rain = 0
KOD1 170249Z 14008KT 24/17 A2992 RMK A01 T02380170  RH  066%=      5-min Rain = 0
KOD1 170250Z 14009KT 24/17 A2992 RMK A01 T02370171  RH  067%=      5-min Rain = 0
KOD1 170251Z 14008KT 24/17 A2992 RMK A01 T02360171  RH  067%=      5-min Rain = 0
KOD1 170252Z 14008KT 24/17 A2992 RMK A01 T02360172  RH  067%=      5-min Rain = 0
KOD1 170253Z 14008KT 24/17 A2992 RMK A01 T02360172  RH  067%=      5-min Rain = 0
KOD1 170254Z 14009KT 24/17 A2992 RMK A01 T02360171  RH  067%=      5-min Rain = 0
KOD1 170255Z 14009KT 24/17 A2992 RMK A01 T02370171  RH  066%=      5-min Rain = 0
KOD1 170256Z 14008KT 24/17 A2992 RMK A01 T02380170  RH  066%=      5-min Rain = 0
KOD1 170257Z 14009KT 24/17 A2992 RMK A01 T02390170  RH  065%=      5-min Rain = 0
KOD1 170258Z 14009KT 24/17 A2992 RMK A01 T02400170  RH  065%=      5-min Rain = 0
KOD1 170259Z 14009KT 24/17 A2992 RMK A01 T02420170  RH  064%=      5-min Rain = 0
KOD1 170300Z 14008KT 24/17 A2992 RMK A01 T02420169  RH  064%=      5-min Rain = 0
KOD1 170301Z 14009KT 24/17 A2992 RMK A01 T02430169  RH  063%=      5-min Rain = 0
KOD1 170302Z 14009KT 24/17 A2992 RMK A01 T02440169  RH  063%=      5-min Rain = 0
KOD1 170303Z 14009KT 24/17 A2992 RMK A01 T02440169  RH  063%=      5-min Rain = 0
KOD1 170304Z 14008KT 24/17 A2992 RMK A01 T02430169  RH  063%=      5-min Rain = 0
KOD1 170305Z 14008KT 24/17 A2992 RMK A01 T02430169  RH  063%=      5-min Rain = 0
KOD1 170306Z 14008KT 24/17 A2992 RMK A01 T02430168  RH  063%=      5-min Rain = 0
KOD1 170307Z 13008KT 24/17 A2992 RMK A01 T02440168  RH  063%=      5-min Rain = 0
KOD1 170308Z 13008KT 24/17 A2992 RMK A01 T02440168  RH  063%=      5-min Rain = 0
KOD1 170309Z 13008KT 24/17 A2992 RMK A01 T02440168  RH  063%=      5-min Rain = 0
KOD1 170310Z 13007KT 24/17 A2993 RMK A01 T02430169  RH  063%=      5-min Rain = 0
KOD1 170311Z 13008KT 24/17 A2993 RMK A01 T02420170  RH  064%=      5-min Rain = 0
KOD1 170312Z 13008KT 24/17 A2993 RMK A01 T02410169  RH  064%=      5-min Rain = 0
KOD1 170313Z 13008KT 24/17 A2993 RMK A01 T02410169  RH  064%=      5-min Rain = 0
KOD1 170314Z 13008KT 24/17 A2993 RMK A01 T02410168  RH  064%=      5-min Rain = 0
KOD1 170315Z 13008KT 24/17 A2993 RMK A01 T02410168  RH  064%=      5-min Rain = 0
KOD1 170316Z 13008KT 24/17 A2993 RMK A01 T02410168  RH  064%=      5-min Rain = 0
KOD1 170317Z 13007KT 24/17 A2993 RMK A01 T02400168  RH  064%=      5-min Rain = 0
KOD1 170318Z 13008KT 24/17 A2993 RMK A01 T02400168  RH  064%=      5-min Rain = 0
KOD1 170319Z 13007KT 24/17 A2993 RMK A01 T02400168  RH  064%=      5-min Rain = 0
KOD1 170320Z 13007KT 24/17 A2993 RMK A01 T02390168  RH  064%=      5-min Rain = 0
KOD1 170321Z 13007KT 24/17 A2993 RMK A01 T02390168  RH  065%=      5-min Rain = 0
KOD1 170322Z 13007KT 24/17 A2993 RMK A01 T02380168  RH  065%=      5-min Rain = 0
KOD1 170323Z 13007KT 24/17 A2993 RMK A01 T02380168  RH  065%=      5-min Rain = 0
KOD1 170324Z 13006KT 24/17 A2994 RMK A01 T02370168  RH  065%=      5-min Rain = 0
KOD1 170325Z 13006KT 24/17 A2994 RMK A01 T02370168  RH  065%=      5-min Rain = 0
KOD1 170326Z 12006KT 24/17 A2994 RMK A01 T02360168  RH  066%=      5-min Rain = 0
KOD1 170327Z 13006KT 24/17 A2994 RMK A01 T02350168  RH  066%=      5-min Rain = 0
KOD1 170328Z 13006KT 24/17 A2994 RMK A01 T02350168  RH  066%=      5-min Rain = 0
KOD1 170329Z 13007KT 23/17 A2994 RMK A01 T02340169  RH  067%=      5-min Rain = 0
KOD1 170330Z 13007KT 23/17 A2994 RMK A01 T02330168  RH  067%=      5-min Rain = 0
KOD1 170331Z 13007KT 23/17 A2994 RMK A01 T02330168  RH  067%=      5-min Rain = 0
KOD1 170332Z 13007KT 23/17 A2994 RMK A01 T02320168  RH  067%=      5-min Rain = 0
KOD1 170333Z 13007KT 23/17 A2994 RMK A01 T02320168  RH  067%=      5-min Rain = 0
KOD1 170334Z 13007KT 23/17 A2994 RMK A01 T02320168  RH  068%=      5-min Rain = 0
KOD1 170335Z 13006KT 23/17 A2994 RMK A01 T02310169  RH  068%=      5-min Rain = 0
KOD1 170336Z 12007KT 23/17 A2994 RMK A01 T02300169  RH  068%=      5-min Rain = 0
KOD1 170337Z 12008G13KT 23/17 A2994 RMK A01 T02300169  RH  068%=      5-min Rain = 0
KOD1 170338Z 12009KT 23/17 A2994 RMK A01 T02300168  RH  068%=      5-min Rain = 0
KOD1 170339Z 12008KT 23/17 A2994 RMK A01 T02320167  RH  067%=      5-min Rain = 0
KOD1 170340Z 12008KT 23/17 A2994 RMK A01 T02330167  RH  066%=      5-min Rain = 0
KOD1 170341Z 12008KT 23/17 A2994 RMK A01 T02340167  RH  066%=      5-min Rain = 0
KOD1 170342Z 12008KT 23/17 A2994 RMK A01 T02330167  RH  066%=      5-min Rain = 0
KOD1 170343Z 12008KT 23/17 A2994 RMK A01 T02330167  RH  066%=      5-min Rain = 0
KOD1 170344Z 12008KT 23/17 A2994 RMK A01 T02340167  RH  066%=      5-min Rain = 0
KOD1 170345Z 12009KT 23/17 A2994 RMK A01 T02340167  RH  066%=      5-min Rain = 0
KOD1 170346Z 13009KT 23/17 A2994 RMK A01 T02340167  RH  066%=      5-min Rain = 0
KOD1 170347Z 13008KT 24/17 A2994 RMK A01 T02350167  RH  066%=      5-min Rain = 0
KOD1 170348Z 13009KT 24/17 A2994 RMK A01 T02350167  RH  066%=      5-min Rain = 0
KOD1 170349Z 13008KT 23/17 A2994 RMK A01 T02340167  RH  066%=      5-min Rain = 0
KOD1 170350Z 13008KT 23/17 A2994 RMK A01 T02340167  RH  066%=      5-min Rain = 0
KOD1 170351Z 13008KT 23/17 A2994 RMK A01 T02340167  RH  066%=      5-min Rain = 0
KOD1 170352Z 13008KT 23/17 A2994 RMK A01 T02340167  RH  066%=      5-min Rain = 0
KOD1 170353Z 13008KT 23/17 A2994 RMK A01 T02330167  RH  066%=      5-min Rain = 0
KOD1 170354Z 13008KT 23/17 A2994 RMK A01 T02330168  RH  067%=      5-min Rain = 0
KOD1 170355Z 13008KT 23/17 A2994 RMK A01 T02330168  RH  067%=      5-min Rain = 0
KOD1 170356Z 14008KT 23/17 A2994 RMK A01 T02320168  RH  067%=      5-min Rain = 0
KOD1 170357Z 14007KT 23/17 A2994 RMK A01 T02320168  RH  068%=      5-min Rain = 0
KOD1 170358Z 14007KT 23/17 A2994 RMK A01 T02310169  RH  068%=      5-min Rain = 0
KOD1 170359Z 14008KT 23/17 A2994 RMK A01 T02300169  RH  068%=      5-min Rain = 0
KOD1 170400Z 13008KT 23/17 A2994 RMK A01 T02300169  RH  069%=      5-min Rain = 0
KOD1 170401Z 13008KT 23/17 A2994 RMK A01 T02290169  RH  069%=      5-min Rain = 0
KOD1 170402Z 13009KT 23/17 A2994 RMK A01 T02290169  RH  069%=      5-min Rain = 0
KOD1 170403Z 13009KT 23/17 A2994 RMK A01 T02280170  RH  069%=      5-min Rain = 0
KOD1 170404Z 13009KT 23/17 A2994 RMK A01 T02280170  RH  070%=      5-min Rain = 0
KOD1 170405Z 13008KT 23/17 A2994 RMK A01 T02280170  RH  070%=      5-min Rain = 0
KOD1 170406Z 13008KT 23/17 A2994 RMK A01 T02270170  RH  070%=      5-min Rain = 0
KOD1 170407Z 14008KT 23/17 A2993 RMK A01 T02260170  RH  070%=      5-min Rain = 0
KOD1 170408Z 13008KT 23/17 A2993 RMK A01 T02260170  RH  071%=      5-min Rain = 0
KOD1 170409Z 14008KT 23/17 A2993 RMK A01 T02260170  RH  071%=      5-min Rain = 0
KOD1 170410Z 14008KT 23/17 A2993 RMK A01 T02250170  RH  071%=      5-min Rain = 0
KOD1 170411Z 14009KT 23/17 A2993 RMK A01 T02250171  RH  071%=      5-min Rain = 0
KOD1 170412Z 14009KT 23/17 A2993 RMK A01 T02250171  RH  071%=      5-min Rain = 0
KOD1 170413Z 14008KT 22/17 A2993 RMK A01 T02240171  RH  072%=      5-min Rain = 0
KOD1 170414Z 14010KT 22/17 A2993 RMK A01 T02230171  RH  072%=      5-min Rain = 0
KOD1 170415Z 14010KT 22/17 A2993 RMK A01 T02230171  RH  072%=      5-min Rain = 0
KOD1 170416Z 14010KT 22/17 A2993 RMK A01 T02230171  RH  072%=      5-min Rain = 0
KOD1 170417Z 14009KT 22/17 A2993 RMK A01 T02230171  RH  072%=      5-min Rain = 0
KOD1 170418Z 14010KT 22/17 A2993 RMK A01 T02230171  RH  072%=      5-min Rain = 0
KOD1 170419Z 14010KT 22/17 A2993 RMK A01 T02240171  RH  072%=      5-min Rain = 0
KOD1 170420Z 14010KT 22/17 A2993 RMK A01 T02240171  RH  072%=      5-min Rain = 0
KOD1 170421Z 14009KT 23/17 A2993 RMK A01 T02250171  RH  072%=      5-min Rain = 0
KOD1 170422Z 14010KT 23/17 A2993 RMK A01 T02250171  RH  072%=      5-min Rain = 0
KOD1 170423Z 14011KT 23/17 A2993 RMK A01 T02250171  RH  071%=      5-min Rain = 0
KOD1 170424Z 14010KT 23/17 A2993 RMK A01 T02260171  RH  071%=      5-min Rain = 0
KOD1 170425Z 14010KT 23/17 A2993 RMK A01 T02270171  RH  071%=      5-min Rain = 0
KOD1 170426Z 14009KT 23/17 A2993 RMK A01 T02270171  RH  071%=      5-min Rain = 0
KOD1 170427Z 14010KT 23/17 A2993 RMK A01 T02270171  RH  071%=      5-min Rain = 0
KOD1 170428Z 13012KT 23/17 A2993 RMK A01 T02270171  RH  070%=      5-min Rain = 0
KOD1 170429Z 13010KT 23/17 A2993 RMK A01 T02270171  RH  071%=      5-min Rain = 0
KOD1 170430Z 13011KT 23/17 A2993 RMK A01 T02260171  RH  071%=      5-min Rain = 0
KOD1 170431Z 14010KT 23/17 A2993 RMK A01 T02250171  RH  072%=      5-min Rain = 0
KOD1 170432Z 13009KT 23/17 A2993 RMK A01 T02250172  RH  072%=      5-min Rain = 0
KOD1 170433Z 13009KT 22/17 A2994 RMK A01 T02240172  RH  072%=      5-min Rain = 0
KOD1 170434Z 13008KT 22/17 A2994 RMK A01 T02230172  RH  073%=      5-min Rain = 0
KOD1 170435Z 13008KT 22/17 A2994 RMK A01 T02230172  RH  073%=      5-min Rain = 0
KOD1 170436Z 13009KT 22/17 A2994 RMK A01 T02230172  RH  073%=      5-min Rain = 0
KOD1 170437Z 13008KT 22/17 A2994 RMK A01 T02220172  RH  073%=      5-min Rain = 0
KOD1 170438Z 13007KT 22/17 A2994 RMK A01 T02220172  RH  073%=      5-min Rain = 0
KOD1 170439Z 13008KT 22/17 A2994 RMK A01 T02220172  RH  073%=      5-min Rain = 0
KOD1 170440Z 13008KT 22/17 A2994 RMK A01 T02220172  RH  073%=      5-min Rain = 0
KOD1 170441Z 13008KT 22/17 A2994 RMK A01 T02210172  RH  073%=      5-min Rain = 0
KOD1 170442Z 13008KT 22/17 A2994 RMK A01 T02210172  RH  074%=      5-min Rain = 0
KOD1 170443Z 13009KT 22/17 A2994 RMK A01 T02210172  RH  074%=      5-min Rain = 0
KOD1 170444Z 13009KT 22/17 A2994 RMK A01 T02210172  RH  074%=      5-min Rain = 0
KOD1 170445Z 13008KT 22/17 A2994 RMK A01 T02200172  RH  074%=      5-min Rain = 0
KOD1 170446Z 13008KT 22/17 A2994 RMK A01 T02200172  RH  074%=      5-min Rain = 0
KOD1 170447Z 12007KT 22/17 A2994 RMK A01 T02200172  RH  074%=      5-min Rain = 0
KOD1 170448Z 12006KT 22/17 A2994 RMK A01 T02190172  RH  075%=      5-min Rain = 0
KOD1 170449Z 12006KT 22/17 A2994 RMK A01 T02190172  RH  075%=      5-min Rain = 0
KOD1 170450Z 13006KT 22/17 A2994 RMK A01 T02180172  RH  075%=      5-min Rain = 0
KOD1 170451Z 12007KT 22/17 A2994 RMK A01 T02180172  RH  075%=      5-min Rain = 0
KOD1 170452Z 12008KT 22/17 A2994 RMK A01 T02180172  RH  075%=      5-min Rain = 0
KOD1 170453Z 12008KT 22/17 A2994 RMK A01 T02180172  RH  075%=      5-min Rain = 0
KOD1 170454Z 13008KT 22/17 A2994 RMK A01 T02190172  RH  075%=      5-min Rain = 0
KOD1 170455Z 13008KT 22/17 A2994 RMK A01 T02190172  RH  075%=      5-min Rain = 0
KOD1 170456Z 13008KT 22/17 A2994 RMK A01 T02190172  RH  075%=      5-min Rain = 0
KOD1 170457Z 13008KT 22/17 A2994 RMK A01 T02190172  RH  075%=      5-min Rain = 0
KOD1 170458Z 13008KT 22/17 A2994 RMK A01 T02190172  RH  075%=      5-min Rain = 0
KOD1 170459Z 13008KT 22/17 A2994 RMK A01 T02190172  RH  075%=      5-min Rain = 0
KOD1 170500Z 13009KT 22/17 A2994 RMK A01 T02190172  RH  075%=      5-min Rain = 0

Page generated in 0.0622 seconds.